<?xml version="1.0" encoding="UTF-8" standalone="no" ?>
<gpx xmlns="http://www.topografix.com/GPX/1/1" xmlns:xsi="http://www.w3.org/2001/XMLSchema-instance" xsi:schemaLocation="http://www.topografix.com/GPX/1/1 http://www.topografix.com/GPX/1/1/gpx.xsd" version="1.1" creator="VisuGPX - https://www.visugpx.com">
  <metadata>
    <name>12 June 2009 - Sophia Antipolis</name>
    <desc><![CDATA[12 June 2009 - Sophia Antipolis
------------------------------------]]></desc>
  </metadata>
  <trk>
    <name><![CDATA[Track 16]]></name>
    <desc><![CDATA[]]></desc>
    <trkseg>
      <trkpt lat="43.62508" lon="7.06137">
        <ele>383</ele>
        <time>2009-06-12T10:04:58Z</time>
      </trkpt>
      <trkpt lat="43.62506" lon="7.06136">
        <ele>374</ele>
        <time>2009-06-12T10:05:00Z</time>
      </trkpt>
      <trkpt lat="43.62503" lon="7.06138">
        <ele>355</ele>
        <time>2009-06-12T10:05:29Z</time>
      </trkpt>
      <trkpt lat="43.62502" lon="7.06138">
        <ele>351</ele>
        <time>2009-06-12T10:05:30Z</time>
      </trkpt>
      <trkpt lat="43.62502" lon="7.06138">
        <ele>351</ele>
        <time>2009-06-12T10:05:30Z</time>
      </trkpt>
      <trkpt lat="43.62498" lon="7.0614">
        <ele>328</ele>
        <time>2009-06-12T10:06:03Z</time>
      </trkpt>
      <trkpt lat="43.62498" lon="7.06141">
        <ele>321</ele>
        <time>2009-06-12T10:06:04Z</time>
      </trkpt>
      <trkpt lat="43.62499" lon="7.06148">
        <ele>326</ele>
        <time>2009-06-12T10:06:09Z</time>
      </trkpt>
      <trkpt lat="43.62499" lon="7.0615">
        <ele>313</ele>
        <time>2009-06-12T10:06:12Z</time>
      </trkpt>
      <trkpt lat="43.62501" lon="7.06152">
        <ele>302</ele>
        <time>2009-06-12T10:06:50Z</time>
      </trkpt>
      <trkpt lat="43.62502" lon="7.06154">
        <ele>297</ele>
        <time>2009-06-12T10:06:51Z</time>
      </trkpt>
      <trkpt lat="43.62503" lon="7.06162">
        <ele>289</ele>
        <time>2009-06-12T10:07:08Z</time>
      </trkpt>
      <trkpt lat="43.62503" lon="7.06162">
        <ele>289</ele>
        <time>2009-06-12T10:07:11Z</time>
      </trkpt>
      <trkpt lat="43.62504" lon="7.06168">
        <ele>265</ele>
        <time>2009-06-12T10:08:25Z</time>
      </trkpt>
      <trkpt lat="43.62504" lon="7.06169">
        <ele>262</ele>
        <time>2009-06-12T10:08:28Z</time>
      </trkpt>
      <trkpt lat="43.62504" lon="7.0617">
        <ele>257</ele>
        <time>2009-06-12T10:08:38Z</time>
      </trkpt>
      <trkpt lat="43.62507" lon="7.06175">
        <ele>235</ele>
        <time>2009-06-12T10:10:04Z</time>
      </trkpt>
      <trkpt lat="43.62507" lon="7.06176">
        <ele>232</ele>
        <time>2009-06-12T10:10:11Z</time>
      </trkpt>
      <trkpt lat="43.62507" lon="7.06176">
        <ele>232</ele>
        <time>2009-06-12T10:10:11Z</time>
      </trkpt>
      <trkpt lat="43.62508" lon="7.06176">
        <ele>225</ele>
        <time>2009-06-12T10:11:31Z</time>
      </trkpt>
      <trkpt lat="43.62458" lon="7.06108">
        <ele>200</ele>
        <time>2009-06-12T10:11:39Z</time>
      </trkpt>
      <trkpt lat="43.62455" lon="7.06096">
        <ele>200</ele>
        <time>2009-06-12T10:11:40Z</time>
      </trkpt>
      <trkpt lat="43.62453" lon="7.0608">
        <ele>205</ele>
        <time>2009-06-12T10:11:44Z</time>
      </trkpt>
      <trkpt lat="43.62455" lon="7.06063">
        <ele>207</ele>
        <time>2009-06-12T10:11:48Z</time>
      </trkpt>
      <trkpt lat="43.62456" lon="7.06049">
        <ele>210</ele>
        <time>2009-06-12T10:11:52Z</time>
      </trkpt>
      <trkpt lat="43.62458" lon="7.06034">
        <ele>212</ele>
        <time>2009-06-12T10:11:55Z</time>
      </trkpt>
      <trkpt lat="43.62451" lon="7.06002">
        <ele>211</ele>
        <time>2009-06-12T10:12:05Z</time>
      </trkpt>
      <trkpt lat="43.62438" lon="7.05997">
        <ele>210</ele>
        <time>2009-06-12T10:12:10Z</time>
      </trkpt>
      <trkpt lat="43.62431" lon="7.05993">
        <ele>208</ele>
        <time>2009-06-12T10:12:13Z</time>
      </trkpt>
      <trkpt lat="43.62419" lon="7.05979">
        <ele>208</ele>
        <time>2009-06-12T10:12:17Z</time>
      </trkpt>
      <trkpt lat="43.62409" lon="7.05966">
        <ele>208</ele>
        <time>2009-06-12T10:12:21Z</time>
      </trkpt>
      <trkpt lat="43.62408" lon="7.05952">
        <ele>209</ele>
        <time>2009-06-12T10:12:25Z</time>
      </trkpt>
      <trkpt lat="43.6242" lon="7.05936">
        <ele>210</ele>
        <time>2009-06-12T10:12:34Z</time>
      </trkpt>
      <trkpt lat="43.6242" lon="7.05926">
        <ele>212</ele>
        <time>2009-06-12T10:12:38Z</time>
      </trkpt>
      <trkpt lat="43.62429" lon="7.0591">
        <ele>215</ele>
        <time>2009-06-12T10:12:42Z</time>
      </trkpt>
      <trkpt lat="43.62441" lon="7.05903">
        <ele>216</ele>
        <time>2009-06-12T10:12:46Z</time>
      </trkpt>
      <trkpt lat="43.62451" lon="7.05898">
        <ele>219</ele>
        <time>2009-06-12T10:12:50Z</time>
      </trkpt>
      <trkpt lat="43.62468" lon="7.05898">
        <ele>221</ele>
        <time>2009-06-12T10:12:59Z</time>
      </trkpt>
      <trkpt lat="43.62469" lon="7.05911">
        <ele>222</ele>
        <time>2009-06-12T10:13:03Z</time>
      </trkpt>
      <trkpt lat="43.62473" lon="7.05941">
        <ele>223</ele>
        <time>2009-06-12T10:13:11Z</time>
      </trkpt>
      <trkpt lat="43.62475" lon="7.05948">
        <ele>223</ele>
        <time>2009-06-12T10:13:14Z</time>
      </trkpt>
      <trkpt lat="43.62482" lon="7.05956">
        <ele>223</ele>
        <time>2009-06-12T10:13:18Z</time>
      </trkpt>
      <trkpt lat="43.62485" lon="7.0597">
        <ele>223</ele>
        <time>2009-06-12T10:13:22Z</time>
      </trkpt>
      <trkpt lat="43.62482" lon="7.05975">
        <ele>223</ele>
        <time>2009-06-12T10:13:23Z</time>
      </trkpt>
      <trkpt lat="43.62485" lon="7.05983">
        <ele>223</ele>
        <time>2009-06-12T10:13:26Z</time>
      </trkpt>
      <trkpt lat="43.62505" lon="7.06">
        <ele>225</ele>
        <time>2009-06-12T10:13:35Z</time>
      </trkpt>
      <trkpt lat="43.62514" lon="7.05999">
        <ele>226</ele>
        <time>2009-06-12T10:13:36Z</time>
      </trkpt>
      <trkpt lat="43.62521" lon="7.05997">
        <ele>227</ele>
        <time>2009-06-12T10:13:38Z</time>
      </trkpt>
      <trkpt lat="43.62532" lon="7.05991">
        <ele>227</ele>
        <time>2009-06-12T10:13:42Z</time>
      </trkpt>
      <trkpt lat="43.62538" lon="7.05987">
        <ele>227</ele>
        <time>2009-06-12T10:13:46Z</time>
      </trkpt>
      <trkpt lat="43.62545" lon="7.05978">
        <ele>228</ele>
        <time>2009-06-12T10:13:51Z</time>
      </trkpt>
      <trkpt lat="43.62567" lon="7.05949">
        <ele>230</ele>
        <time>2009-06-12T10:14:01Z</time>
      </trkpt>
      <trkpt lat="43.62573" lon="7.05953">
        <ele>232</ele>
        <time>2009-06-12T10:14:03Z</time>
      </trkpt>
      <trkpt lat="43.62578" lon="7.05946">
        <ele>232</ele>
        <time>2009-06-12T10:14:06Z</time>
      </trkpt>
      <trkpt lat="43.62596" lon="7.0594">
        <ele>236</ele>
        <time>2009-06-12T10:14:07Z</time>
      </trkpt>
      <trkpt lat="43.62607" lon="7.05936">
        <ele>237</ele>
        <time>2009-06-12T10:14:11Z</time>
      </trkpt>
      <trkpt lat="43.62615" lon="7.05934">
        <ele>237</ele>
        <time>2009-06-12T10:14:14Z</time>
      </trkpt>
      <trkpt lat="43.62619" lon="7.05939">
        <ele>237</ele>
        <time>2009-06-12T10:14:15Z</time>
      </trkpt>
      <trkpt lat="43.62628" lon="7.05939">
        <ele>237</ele>
        <time>2009-06-12T10:14:18Z</time>
      </trkpt>
      <trkpt lat="43.62636" lon="7.05944">
        <ele>239</ele>
        <time>2009-06-12T10:14:19Z</time>
      </trkpt>
      <trkpt lat="43.62645" lon="7.05946">
        <ele>240</ele>
        <time>2009-06-12T10:14:22Z</time>
      </trkpt>
      <trkpt lat="43.62651" lon="7.05947">
        <ele>241</ele>
        <time>2009-06-12T10:14:23Z</time>
      </trkpt>
      <trkpt lat="43.62661" lon="7.05949">
        <ele>241</ele>
        <time>2009-06-12T10:14:26Z</time>
      </trkpt>
      <trkpt lat="43.62663" lon="7.05955">
        <ele>242</ele>
        <time>2009-06-12T10:14:27Z</time>
      </trkpt>
      <trkpt lat="43.62697" lon="7.05968">
        <ele>242</ele>
        <time>2009-06-12T10:14:36Z</time>
      </trkpt>
      <trkpt lat="43.62702" lon="7.05971">
        <ele>244</ele>
        <time>2009-06-12T10:14:37Z</time>
      </trkpt>
      <trkpt lat="43.62708" lon="7.05978">
        <ele>245</ele>
        <time>2009-06-12T10:14:38Z</time>
      </trkpt>
      <trkpt lat="43.6272" lon="7.05983">
        <ele>245</ele>
        <time>2009-06-12T10:14:41Z</time>
      </trkpt>
      <trkpt lat="43.62725" lon="7.05986">
        <ele>246</ele>
        <time>2009-06-12T10:14:42Z</time>
      </trkpt>
      <trkpt lat="43.62736" lon="7.05991">
        <ele>246</ele>
        <time>2009-06-12T10:14:45Z</time>
      </trkpt>
      <trkpt lat="43.62738" lon="7.05997">
        <ele>246</ele>
        <time>2009-06-12T10:14:46Z</time>
      </trkpt>
      <trkpt lat="43.62749" lon="7.06005">
        <ele>246</ele>
        <time>2009-06-12T10:14:49Z</time>
      </trkpt>
      <trkpt lat="43.62762" lon="7.06017">
        <ele>247</ele>
        <time>2009-06-12T10:14:53Z</time>
      </trkpt>
      <trkpt lat="43.62782" lon="7.06033">
        <ele>248</ele>
        <time>2009-06-12T10:15:03Z</time>
      </trkpt>
      <trkpt lat="43.62797" lon="7.06048">
        <ele>249</ele>
        <time>2009-06-12T10:15:10Z</time>
      </trkpt>
      <trkpt lat="43.62803" lon="7.06044">
        <ele>250</ele>
        <time>2009-06-12T10:15:14Z</time>
      </trkpt>
      <trkpt lat="43.62807" lon="7.06038">
        <ele>252</ele>
        <time>2009-06-12T10:15:17Z</time>
      </trkpt>
      <trkpt lat="43.6281" lon="7.06033">
        <ele>252</ele>
        <time>2009-06-12T10:15:20Z</time>
      </trkpt>
      <trkpt lat="43.62815" lon="7.06028">
        <ele>254</ele>
        <time>2009-06-12T10:15:24Z</time>
      </trkpt>
      <trkpt lat="43.62824" lon="7.0601">
        <ele>256</ele>
        <time>2009-06-12T10:15:35Z</time>
      </trkpt>
      <trkpt lat="43.62828" lon="7.06001">
        <ele>258</ele>
        <time>2009-06-12T10:15:40Z</time>
      </trkpt>
      <trkpt lat="43.62832" lon="7.05999">
        <ele>260</ele>
        <time>2009-06-12T10:15:41Z</time>
      </trkpt>
      <trkpt lat="43.62835" lon="7.05992">
        <ele>260</ele>
        <time>2009-06-12T10:15:43Z</time>
      </trkpt>
      <trkpt lat="43.62837" lon="7.05986">
        <ele>260</ele>
        <time>2009-06-12T10:15:44Z</time>
      </trkpt>
      <trkpt lat="43.62839" lon="7.05978">
        <ele>260</ele>
        <time>2009-06-12T10:15:47Z</time>
      </trkpt>
      <trkpt lat="43.62844" lon="7.0597">
        <ele>262</ele>
        <time>2009-06-12T10:15:53Z</time>
      </trkpt>
      <trkpt lat="43.62853" lon="7.05943">
        <ele>261</ele>
        <time>2009-06-12T10:16:02Z</time>
      </trkpt>
      <trkpt lat="43.62854" lon="7.05936">
        <ele>261</ele>
        <time>2009-06-12T10:16:03Z</time>
      </trkpt>
      <trkpt lat="43.62859" lon="7.05932">
        <ele>262</ele>
        <time>2009-06-12T10:16:04Z</time>
      </trkpt>
      <trkpt lat="43.62857" lon="7.05903">
        <ele>261</ele>
        <time>2009-06-12T10:16:12Z</time>
      </trkpt>
      <trkpt lat="43.62862" lon="7.05891">
        <ele>263</ele>
        <time>2009-06-12T10:16:14Z</time>
      </trkpt>
      <trkpt lat="43.62862" lon="7.05879">
        <ele>263</ele>
        <time>2009-06-12T10:16:17Z</time>
      </trkpt>
      <trkpt lat="43.62867" lon="7.05872">
        <ele>263</ele>
        <time>2009-06-12T10:16:18Z</time>
      </trkpt>
      <trkpt lat="43.62868" lon="7.05859">
        <ele>263</ele>
        <time>2009-06-12T10:16:21Z</time>
      </trkpt>
      <trkpt lat="43.62873" lon="7.05845">
        <ele>264</ele>
        <time>2009-06-12T10:16:25Z</time>
      </trkpt>
      <trkpt lat="43.62866" lon="7.05829">
        <ele>266</ele>
        <time>2009-06-12T10:16:26Z</time>
      </trkpt>
      <trkpt lat="43.62846" lon="7.05778">
        <ele>265</ele>
        <time>2009-06-12T10:16:35Z</time>
      </trkpt>
      <trkpt lat="43.62841" lon="7.05771">
        <ele>265</ele>
        <time>2009-06-12T10:16:36Z</time>
      </trkpt>
      <trkpt lat="43.62843" lon="7.05758">
        <ele>266</ele>
        <time>2009-06-12T10:16:37Z</time>
      </trkpt>
      <trkpt lat="43.62846" lon="7.05737">
        <ele>267</ele>
        <time>2009-06-12T10:16:40Z</time>
      </trkpt>
      <trkpt lat="43.6285" lon="7.05729">
        <ele>268</ele>
        <time>2009-06-12T10:16:41Z</time>
      </trkpt>
      <trkpt lat="43.62852" lon="7.05724">
        <ele>269</ele>
        <time>2009-06-12T10:16:42Z</time>
      </trkpt>
      <trkpt lat="43.62858" lon="7.05712">
        <ele>271</ele>
        <time>2009-06-12T10:16:45Z</time>
      </trkpt>
      <trkpt lat="43.62862" lon="7.05703">
        <ele>275</ele>
        <time>2009-06-12T10:16:49Z</time>
      </trkpt>
      <trkpt lat="43.62867" lon="7.05696">
        <ele>276</ele>
        <time>2009-06-12T10:16:58Z</time>
      </trkpt>
      <trkpt lat="43.62872" lon="7.05706">
        <ele>277</ele>
        <time>2009-06-12T10:17:02Z</time>
      </trkpt>
      <trkpt lat="43.62879" lon="7.05711">
        <ele>277</ele>
        <time>2009-06-12T10:17:05Z</time>
      </trkpt>
      <trkpt lat="43.62886" lon="7.05726">
        <ele>276</ele>
        <time>2009-06-12T10:17:09Z</time>
      </trkpt>
      <trkpt lat="43.62896" lon="7.05724">
        <ele>275</ele>
        <time>2009-06-12T10:17:15Z</time>
      </trkpt>
      <trkpt lat="43.62904" lon="7.05723">
        <ele>276</ele>
        <time>2009-06-12T10:17:22Z</time>
      </trkpt>
      <trkpt lat="43.6291" lon="7.0573">
        <ele>275</ele>
        <time>2009-06-12T10:17:26Z</time>
      </trkpt>
      <trkpt lat="43.62913" lon="7.05736">
        <ele>275</ele>
        <time>2009-06-12T10:17:29Z</time>
      </trkpt>
      <trkpt lat="43.62921" lon="7.05751">
        <ele>273</ele>
        <time>2009-06-12T10:17:38Z</time>
      </trkpt>
      <trkpt lat="43.62925" lon="7.05756">
        <ele>271</ele>
        <time>2009-06-12T10:17:39Z</time>
      </trkpt>
      <trkpt lat="43.62929" lon="7.05763">
        <ele>269</ele>
        <time>2009-06-12T10:17:42Z</time>
      </trkpt>
      <trkpt lat="43.62933" lon="7.0577">
        <ele>269</ele>
        <time>2009-06-12T10:17:47Z</time>
      </trkpt>
      <trkpt lat="43.62935" lon="7.05781">
        <ele>266</ele>
        <time>2009-06-12T10:17:54Z</time>
      </trkpt>
      <trkpt lat="43.62939" lon="7.05813">
        <ele>264</ele>
        <time>2009-06-12T10:18:03Z</time>
      </trkpt>
      <trkpt lat="43.62935" lon="7.05857">
        <ele>263</ele>
        <time>2009-06-12T10:18:11Z</time>
      </trkpt>
      <trkpt lat="43.62936" lon="7.05873">
        <ele>262</ele>
        <time>2009-06-12T10:18:13Z</time>
      </trkpt>
      <trkpt lat="43.62938" lon="7.05893">
        <ele>260</ele>
        <time>2009-06-12T10:18:17Z</time>
      </trkpt>
      <trkpt lat="43.62943" lon="7.05906">
        <ele>259</ele>
        <time>2009-06-12T10:18:19Z</time>
      </trkpt>
      <trkpt lat="43.62948" lon="7.0592">
        <ele>258</ele>
        <time>2009-06-12T10:18:23Z</time>
      </trkpt>
      <trkpt lat="43.62951" lon="7.05925">
        <ele>257</ele>
        <time>2009-06-12T10:18:24Z</time>
      </trkpt>
      <trkpt lat="43.62968" lon="7.0595">
        <ele>257</ele>
        <time>2009-06-12T10:18:32Z</time>
      </trkpt>
      <trkpt lat="43.62966" lon="7.05964">
        <ele>255</ele>
        <time>2009-06-12T10:18:36Z</time>
      </trkpt>
      <trkpt lat="43.6297" lon="7.05971">
        <ele>254</ele>
        <time>2009-06-12T10:18:40Z</time>
      </trkpt>
      <trkpt lat="43.62973" lon="7.05981">
        <ele>252</ele>
        <time>2009-06-12T10:18:48Z</time>
      </trkpt>
      <trkpt lat="43.62986" lon="7.05998">
        <ele>250</ele>
        <time>2009-06-12T10:18:57Z</time>
      </trkpt>
      <trkpt lat="43.6299" lon="7.06009">
        <ele>251</ele>
        <time>2009-06-12T10:19:01Z</time>
      </trkpt>
      <trkpt lat="43.62993" lon="7.06016">
        <ele>252</ele>
        <time>2009-06-12T10:19:03Z</time>
      </trkpt>
      <trkpt lat="43.62995" lon="7.06024">
        <ele>253</ele>
        <time>2009-06-12T10:19:06Z</time>
      </trkpt>
      <trkpt lat="43.62997" lon="7.0603">
        <ele>254</ele>
        <time>2009-06-12T10:19:12Z</time>
      </trkpt>
      <trkpt lat="43.62997" lon="7.06039">
        <ele>253</ele>
        <time>2009-06-12T10:19:20Z</time>
      </trkpt>
      <trkpt lat="43.63001" lon="7.06045">
        <ele>251</ele>
        <time>2009-06-12T10:19:24Z</time>
      </trkpt>
      <trkpt lat="43.63004" lon="7.06066">
        <ele>247</ele>
        <time>2009-06-12T10:19:33Z</time>
      </trkpt>
      <trkpt lat="43.63006" lon="7.0608">
        <ele>244</ele>
        <time>2009-06-12T10:19:37Z</time>
      </trkpt>
      <trkpt lat="43.63006" lon="7.06091">
        <ele>243</ele>
        <time>2009-06-12T10:19:41Z</time>
      </trkpt>
      <trkpt lat="43.63012" lon="7.0609">
        <ele>242</ele>
        <time>2009-06-12T10:19:45Z</time>
      </trkpt>
      <trkpt lat="43.63021" lon="7.06088">
        <ele>242</ele>
        <time>2009-06-12T10:19:49Z</time>
      </trkpt>
      <trkpt lat="43.63041" lon="7.06083">
        <ele>242</ele>
        <time>2009-06-12T10:19:58Z</time>
      </trkpt>
      <trkpt lat="43.63044" lon="7.06091">
        <ele>239</ele>
        <time>2009-06-12T10:20:02Z</time>
      </trkpt>
      <trkpt lat="43.6305" lon="7.06102">
        <ele>237</ele>
        <time>2009-06-12T10:20:06Z</time>
      </trkpt>
      <trkpt lat="43.63054" lon="7.06104">
        <ele>236</ele>
        <time>2009-06-12T10:20:10Z</time>
      </trkpt>
      <trkpt lat="43.63053" lon="7.06101">
        <ele>231</ele>
        <time>2009-06-12T10:20:37Z</time>
      </trkpt>
      <trkpt lat="43.63052" lon="7.06096">
        <ele>222</ele>
        <time>2009-06-12T10:21:02Z</time>
      </trkpt>
      <trkpt lat="43.63052" lon="7.06094">
        <ele>222</ele>
        <time>2009-06-12T10:21:03Z</time>
      </trkpt>
      <trkpt lat="43.63039" lon="7.06031">
        <ele>218</ele>
        <time>2009-06-12T10:21:12Z</time>
      </trkpt>
      <trkpt lat="43.63036" lon="7.06016">
        <ele>218</ele>
        <time>2009-06-12T10:21:14Z</time>
      </trkpt>
      <trkpt lat="43.63034" lon="7.06007">
        <ele>218</ele>
        <time>2009-06-12T10:21:15Z</time>
      </trkpt>
      <trkpt lat="43.63034" lon="7.05999">
        <ele>217</ele>
        <time>2009-06-12T10:21:16Z</time>
      </trkpt>
      <trkpt lat="43.63031" lon="7.05976">
        <ele>217</ele>
        <time>2009-06-12T10:21:19Z</time>
      </trkpt>
      <trkpt lat="43.63029" lon="7.05965">
        <ele>216</ele>
        <time>2009-06-12T10:21:20Z</time>
      </trkpt>
      <trkpt lat="43.63028" lon="7.05957">
        <ele>215</ele>
        <time>2009-06-12T10:21:21Z</time>
      </trkpt>
      <trkpt lat="43.63025" lon="7.05917">
        <ele>215</ele>
        <time>2009-06-12T10:21:29Z</time>
      </trkpt>
      <trkpt lat="43.63029" lon="7.05905">
        <ele>215</ele>
        <time>2009-06-12T10:21:34Z</time>
      </trkpt>
      <trkpt lat="43.63032" lon="7.05895">
        <ele>214</ele>
        <time>2009-06-12T10:21:36Z</time>
      </trkpt>
      <trkpt lat="43.63037" lon="7.05883">
        <ele>215</ele>
        <time>2009-06-12T10:21:39Z</time>
      </trkpt>
      <trkpt lat="43.63036" lon="7.05877">
        <ele>215</ele>
        <time>2009-06-12T10:21:41Z</time>
      </trkpt>
      <trkpt lat="43.63047" lon="7.05857">
        <ele>216</ele>
        <time>2009-06-12T10:21:49Z</time>
      </trkpt>
      <trkpt lat="43.63052" lon="7.05849">
        <ele>215</ele>
        <time>2009-06-12T10:21:51Z</time>
      </trkpt>
      <trkpt lat="43.63061" lon="7.05841">
        <ele>215</ele>
        <time>2009-06-12T10:21:52Z</time>
      </trkpt>
      <trkpt lat="43.63068" lon="7.05836">
        <ele>215</ele>
        <time>2009-06-12T10:21:55Z</time>
      </trkpt>
      <trkpt lat="43.63073" lon="7.05833">
        <ele>215</ele>
        <time>2009-06-12T10:21:56Z</time>
      </trkpt>
      <trkpt lat="43.63081" lon="7.05824">
        <ele>214</ele>
        <time>2009-06-12T10:22:00Z</time>
      </trkpt>
      <trkpt lat="43.63086" lon="7.05819">
        <ele>213</ele>
        <time>2009-06-12T10:22:04Z</time>
      </trkpt>
      <trkpt lat="43.63096" lon="7.05811">
        <ele>213</ele>
        <time>2009-06-12T10:22:11Z</time>
      </trkpt>
      <trkpt lat="43.63101" lon="7.05806">
        <ele>213</ele>
        <time>2009-06-12T10:22:14Z</time>
      </trkpt>
      <trkpt lat="43.63106" lon="7.05798">
        <ele>212</ele>
        <time>2009-06-12T10:22:17Z</time>
      </trkpt>
      <trkpt lat="43.6311" lon="7.05789">
        <ele>211</ele>
        <time>2009-06-12T10:22:21Z</time>
      </trkpt>
      <trkpt lat="43.63114" lon="7.05784">
        <ele>210</ele>
        <time>2009-06-12T10:22:26Z</time>
      </trkpt>
      <trkpt lat="43.63124" lon="7.05772">
        <ele>210</ele>
        <time>2009-06-12T10:22:35Z</time>
      </trkpt>
      <trkpt lat="43.63128" lon="7.05766">
        <ele>209</ele>
        <time>2009-06-12T10:22:37Z</time>
      </trkpt>
      <trkpt lat="43.63134" lon="7.05761">
        <ele>209</ele>
        <time>2009-06-12T10:22:41Z</time>
      </trkpt>
      <trkpt lat="43.6314" lon="7.05756">
        <ele>209</ele>
        <time>2009-06-12T10:22:44Z</time>
      </trkpt>
      <trkpt lat="43.63146" lon="7.0575">
        <ele>209</ele>
        <time>2009-06-12T10:22:48Z</time>
      </trkpt>
      <trkpt lat="43.6315" lon="7.0574">
        <ele>209</ele>
        <time>2009-06-12T10:22:57Z</time>
      </trkpt>
      <trkpt lat="43.63154" lon="7.05737">
        <ele>203</ele>
        <time>2009-06-12T10:23:21Z</time>
      </trkpt>
      <trkpt lat="43.63156" lon="7.05731">
        <ele>202</ele>
        <time>2009-06-12T10:23:26Z</time>
      </trkpt>
      <trkpt lat="43.63154" lon="7.05725">
        <ele>203</ele>
        <time>2009-06-12T10:23:34Z</time>
      </trkpt>
      <trkpt lat="43.63143" lon="7.05687">
        <ele>201</ele>
        <time>2009-06-12T10:23:35Z</time>
      </trkpt>
      <trkpt lat="43.6314" lon="7.05669">
        <ele>200</ele>
        <time>2009-06-12T10:23:38Z</time>
      </trkpt>
      <trkpt lat="43.63139" lon="7.05656">
        <ele>199</ele>
        <time>2009-06-12T10:23:40Z</time>
      </trkpt>
      <trkpt lat="43.63137" lon="7.05639">
        <ele>198</ele>
        <time>2009-06-12T10:23:43Z</time>
      </trkpt>
      <trkpt lat="43.63137" lon="7.0563">
        <ele>198</ele>
        <time>2009-06-12T10:23:44Z</time>
      </trkpt>
      <trkpt lat="43.63138" lon="7.0561">
        <ele>198</ele>
        <time>2009-06-12T10:23:48Z</time>
      </trkpt>
      <trkpt lat="43.63138" lon="7.05601">
        <ele>197</ele>
        <time>2009-06-12T10:23:49Z</time>
      </trkpt>
      <trkpt lat="43.63137" lon="7.05558">
        <ele>198</ele>
        <time>2009-06-12T10:23:57Z</time>
      </trkpt>
      <trkpt lat="43.6314" lon="7.05543">
        <ele>198</ele>
        <time>2009-06-12T10:24:02Z</time>
      </trkpt>
      <trkpt lat="43.63143" lon="7.05537">
        <ele>197</ele>
        <time>2009-06-12T10:24:03Z</time>
      </trkpt>
      <trkpt lat="43.63148" lon="7.0552">
        <ele>199</ele>
        <time>2009-06-12T10:24:08Z</time>
      </trkpt>
      <trkpt lat="43.63148" lon="7.05512">
        <ele>200</ele>
        <time>2009-06-12T10:24:11Z</time>
      </trkpt>
      <trkpt lat="43.63151" lon="7.055">
        <ele>199</ele>
        <time>2009-06-12T10:24:16Z</time>
      </trkpt>
      <trkpt lat="43.63155" lon="7.05493">
        <ele>201</ele>
        <time>2009-06-12T10:24:17Z</time>
      </trkpt>
      <trkpt lat="43.63159" lon="7.05482">
        <ele>201</ele>
        <time>2009-06-12T10:24:21Z</time>
      </trkpt>
      <trkpt lat="43.63163" lon="7.05477">
        <ele>200</ele>
        <time>2009-06-12T10:24:23Z</time>
      </trkpt>
      <trkpt lat="43.63168" lon="7.05462">
        <ele>200</ele>
        <time>2009-06-12T10:24:29Z</time>
      </trkpt>
      <trkpt lat="43.63171" lon="7.05456">
        <ele>200</ele>
        <time>2009-06-12T10:24:30Z</time>
      </trkpt>
      <trkpt lat="43.63173" lon="7.05447">
        <ele>199</ele>
        <time>2009-06-12T10:24:33Z</time>
      </trkpt>
      <trkpt lat="43.63171" lon="7.05439">
        <ele>199</ele>
        <time>2009-06-12T10:24:37Z</time>
      </trkpt>
      <trkpt lat="43.63176" lon="7.05426">
        <ele>198</ele>
        <time>2009-06-12T10:24:41Z</time>
      </trkpt>
      <trkpt lat="43.63178" lon="7.05418">
        <ele>200</ele>
        <time>2009-06-12T10:24:45Z</time>
      </trkpt>
      <trkpt lat="43.63183" lon="7.05411">
        <ele>200</ele>
        <time>2009-06-12T10:24:47Z</time>
      </trkpt>
      <trkpt lat="43.63189" lon="7.0539">
        <ele>200</ele>
        <time>2009-06-12T10:24:55Z</time>
      </trkpt>
      <trkpt lat="43.63192" lon="7.05384">
        <ele>200</ele>
        <time>2009-06-12T10:24:56Z</time>
      </trkpt>
      <trkpt lat="43.63196" lon="7.05377">
        <ele>200</ele>
        <time>2009-06-12T10:24:58Z</time>
      </trkpt>
      <trkpt lat="43.632" lon="7.05371">
        <ele>200</ele>
        <time>2009-06-12T10:25:00Z</time>
      </trkpt>
      <trkpt lat="43.63204" lon="7.05365">
        <ele>200</ele>
        <time>2009-06-12T10:25:02Z</time>
      </trkpt>
      <trkpt lat="43.63207" lon="7.05356">
        <ele>198</ele>
        <time>2009-06-12T10:25:05Z</time>
      </trkpt>
      <trkpt lat="43.63207" lon="7.05335">
        <ele>195</ele>
        <time>2009-06-12T10:25:13Z</time>
      </trkpt>
      <trkpt lat="43.63207" lon="7.05328">
        <ele>194</ele>
        <time>2009-06-12T10:25:16Z</time>
      </trkpt>
      <trkpt lat="43.632" lon="7.05321">
        <ele>196</ele>
        <time>2009-06-12T10:25:21Z</time>
      </trkpt>
      <trkpt lat="43.63198" lon="7.05313">
        <ele>195</ele>
        <time>2009-06-12T10:25:26Z</time>
      </trkpt>
      <trkpt lat="43.63189" lon="7.05299">
        <ele>194</ele>
        <time>2009-06-12T10:25:36Z</time>
      </trkpt>
      <trkpt lat="43.63189" lon="7.05299">
        <ele>194</ele>
        <time>2009-06-12T10:25:36Z</time>
      </trkpt>
      <trkpt lat="43.63191" lon="7.05297">
        <ele>193</ele>
        <time>2009-06-12T10:25:38Z</time>
      </trkpt>
      <trkpt lat="43.63181" lon="7.05288">
        <ele>195</ele>
        <time>2009-06-12T10:25:41Z</time>
      </trkpt>
      <trkpt lat="43.63171" lon="7.05277">
        <ele>193</ele>
        <time>2009-06-12T10:25:48Z</time>
      </trkpt>
      <trkpt lat="43.6317" lon="7.05268">
        <ele>194</ele>
        <time>2009-06-12T10:25:53Z</time>
      </trkpt>
      <trkpt lat="43.63169" lon="7.05261">
        <ele>194</ele>
        <time>2009-06-12T10:25:58Z</time>
      </trkpt>
      <trkpt lat="43.63164" lon="7.05256">
        <ele>191</ele>
        <time>2009-06-12T10:26:02Z</time>
      </trkpt>
      <trkpt lat="43.63164" lon="7.05249">
        <ele>191</ele>
        <time>2009-06-12T10:26:04Z</time>
      </trkpt>
      <trkpt lat="43.6316" lon="7.05224">
        <ele>186</ele>
        <time>2009-06-12T10:26:12Z</time>
      </trkpt>
      <trkpt lat="43.6316" lon="7.05216">
        <ele>186</ele>
        <time>2009-06-12T10:26:16Z</time>
      </trkpt>
      <trkpt lat="43.6316" lon="7.05206">
        <ele>185</ele>
        <time>2009-06-12T10:26:19Z</time>
      </trkpt>
      <trkpt lat="43.63161" lon="7.05194">
        <ele>185</ele>
        <time>2009-06-12T10:26:24Z</time>
      </trkpt>
      <trkpt lat="43.63163" lon="7.05184">
        <ele>185</ele>
        <time>2009-06-12T10:26:26Z</time>
      </trkpt>
      <trkpt lat="43.63166" lon="7.05162">
        <ele>185</ele>
        <time>2009-06-12T10:26:34Z</time>
      </trkpt>
      <trkpt lat="43.63165" lon="7.05153">
        <ele>183</ele>
        <time>2009-06-12T10:26:37Z</time>
      </trkpt>
      <trkpt lat="43.63167" lon="7.05144">
        <ele>183</ele>
        <time>2009-06-12T10:26:40Z</time>
      </trkpt>
      <trkpt lat="43.63166" lon="7.05123">
        <ele>185</ele>
        <time>2009-06-12T10:26:45Z</time>
      </trkpt>
      <trkpt lat="43.63167" lon="7.05115">
        <ele>186</ele>
        <time>2009-06-12T10:26:47Z</time>
      </trkpt>
      <trkpt lat="43.63164" lon="7.05094">
        <ele>185</ele>
        <time>2009-06-12T10:26:55Z</time>
      </trkpt>
      <trkpt lat="43.63163" lon="7.05086">
        <ele>186</ele>
        <time>2009-06-12T10:26:57Z</time>
      </trkpt>
      <trkpt lat="43.63162" lon="7.05077">
        <ele>185</ele>
        <time>2009-06-12T10:27:01Z</time>
      </trkpt>
      <trkpt lat="43.6316" lon="7.05065">
        <ele>187</ele>
        <time>2009-06-12T10:27:05Z</time>
      </trkpt>
      <trkpt lat="43.63157" lon="7.0503">
        <ele>190</ele>
        <time>2009-06-12T10:27:12Z</time>
      </trkpt>
      <trkpt lat="43.63155" lon="7.05021">
        <ele>191</ele>
        <time>2009-06-12T10:27:15Z</time>
      </trkpt>
      <trkpt lat="43.6316" lon="7.05014">
        <ele>192</ele>
        <time>2009-06-12T10:27:17Z</time>
      </trkpt>
      <trkpt lat="43.6316" lon="7.05006">
        <ele>193</ele>
        <time>2009-06-12T10:27:21Z</time>
      </trkpt>
      <trkpt lat="43.63167" lon="7.04996">
        <ele>196</ele>
        <time>2009-06-12T10:27:24Z</time>
      </trkpt>
      <trkpt lat="43.63171" lon="7.0497">
        <ele>198</ele>
        <time>2009-06-12T10:27:33Z</time>
      </trkpt>
      <trkpt lat="43.63176" lon="7.04966">
        <ele>200</ele>
        <time>2009-06-12T10:27:34Z</time>
      </trkpt>
      <trkpt lat="43.63177" lon="7.04955">
        <ele>199</ele>
        <time>2009-06-12T10:27:37Z</time>
      </trkpt>
      <trkpt lat="43.63176" lon="7.04942">
        <ele>200</ele>
        <time>2009-06-12T10:27:41Z</time>
      </trkpt>
      <trkpt lat="43.63172" lon="7.04928">
        <ele>200</ele>
        <time>2009-06-12T10:27:45Z</time>
      </trkpt>
      <trkpt lat="43.63169" lon="7.04917">
        <ele>200</ele>
        <time>2009-06-12T10:27:49Z</time>
      </trkpt>
      <trkpt lat="43.63167" lon="7.04926">
        <ele>199</ele>
        <time>2009-06-12T10:28:01Z</time>
      </trkpt>
      <trkpt lat="43.63164" lon="7.04932">
        <ele>198</ele>
        <time>2009-06-12T10:28:05Z</time>
      </trkpt>
      <trkpt lat="43.63159" lon="7.04946">
        <ele>199</ele>
        <time>2009-06-12T10:28:12Z</time>
      </trkpt>
      <trkpt lat="43.63156" lon="7.04955">
        <ele>199</ele>
        <time>2009-06-12T10:28:16Z</time>
      </trkpt>
      <trkpt lat="43.63152" lon="7.04957">
        <ele>199</ele>
        <time>2009-06-12T10:28:20Z</time>
      </trkpt>
      <trkpt lat="43.63145" lon="7.04962">
        <ele>199</ele>
        <time>2009-06-12T10:28:24Z</time>
      </trkpt>
      <trkpt lat="43.63137" lon="7.04965">
        <ele>201</ele>
        <time>2009-06-12T10:28:34Z</time>
      </trkpt>
      <trkpt lat="43.6314" lon="7.04958">
        <ele>202</ele>
        <time>2009-06-12T10:28:35Z</time>
      </trkpt>
      <trkpt lat="43.63136" lon="7.04952">
        <ele>203</ele>
        <time>2009-06-12T10:28:40Z</time>
      </trkpt>
      <trkpt lat="43.6313" lon="7.04952">
        <ele>203</ele>
        <time>2009-06-12T10:28:44Z</time>
      </trkpt>
      <trkpt lat="43.63126" lon="7.04946">
        <ele>203</ele>
        <time>2009-06-12T10:28:48Z</time>
      </trkpt>
      <trkpt lat="43.63113" lon="7.04937">
        <ele>204</ele>
        <time>2009-06-12T10:28:58Z</time>
      </trkpt>
      <trkpt lat="43.63115" lon="7.04928">
        <ele>204</ele>
        <time>2009-06-12T10:29:00Z</time>
      </trkpt>
      <trkpt lat="43.6311" lon="7.04923">
        <ele>204</ele>
        <time>2009-06-12T10:29:05Z</time>
      </trkpt>
      <trkpt lat="43.63107" lon="7.04912">
        <ele>204</ele>
        <time>2009-06-12T10:29:10Z</time>
      </trkpt>
      <trkpt lat="43.63105" lon="7.04906">
        <ele>205</ele>
        <time>2009-06-12T10:29:14Z</time>
      </trkpt>
      <trkpt lat="43.63102" lon="7.04899">
        <ele>205</ele>
        <time>2009-06-12T10:29:18Z</time>
      </trkpt>
      <trkpt lat="43.63102" lon="7.04889">
        <ele>205</ele>
        <time>2009-06-12T10:29:23Z</time>
      </trkpt>
      <trkpt lat="43.63108" lon="7.04892">
        <ele>205</ele>
        <time>2009-06-12T10:29:25Z</time>
      </trkpt>
      <trkpt lat="43.63106" lon="7.04885">
        <ele>204</ele>
        <time>2009-06-12T10:29:34Z</time>
      </trkpt>
      <trkpt lat="43.6311" lon="7.04885">
        <ele>203</ele>
        <time>2009-06-12T10:29:36Z</time>
      </trkpt>
      <trkpt lat="43.63111" lon="7.04883">
        <ele>203</ele>
        <time>2009-06-12T10:29:41Z</time>
      </trkpt>
      <trkpt lat="43.63113" lon="7.0488">
        <ele>205</ele>
        <time>2009-06-12T10:29:42Z</time>
      </trkpt>
      <trkpt lat="43.63113" lon="7.0488">
        <ele>205</ele>
        <time>2009-06-12T10:29:42Z</time>
      </trkpt>
      <trkpt lat="43.63113" lon="7.04882">
        <ele>205</ele>
        <time>2009-06-12T10:30:05Z</time>
      </trkpt>
      <trkpt lat="43.63116" lon="7.04874">
        <ele>208</ele>
        <time>2009-06-12T10:30:12Z</time>
      </trkpt>
      <trkpt lat="43.63116" lon="7.04874">
        <ele>208</ele>
        <time>2009-06-12T10:30:12Z</time>
      </trkpt>
      <trkpt lat="43.63115" lon="7.04868">
        <ele>210</ele>
        <time>2009-06-12T10:30:21Z</time>
      </trkpt>
      <trkpt lat="43.63114" lon="7.04867">
        <ele>210</ele>
        <time>2009-06-12T10:30:22Z</time>
      </trkpt>
      <trkpt lat="43.63087" lon="7.04809">
        <ele>210</ele>
        <time>2009-06-12T10:30:35Z</time>
      </trkpt>
      <trkpt lat="43.63082" lon="7.04807">
        <ele>210</ele>
        <time>2009-06-12T10:30:37Z</time>
      </trkpt>
      <trkpt lat="43.63074" lon="7.04803">
        <ele>209</ele>
        <time>2009-06-12T10:30:40Z</time>
      </trkpt>
      <trkpt lat="43.63072" lon="7.04794">
        <ele>210</ele>
        <time>2009-06-12T10:30:42Z</time>
      </trkpt>
      <trkpt lat="43.63066" lon="7.04789">
        <ele>210</ele>
        <time>2009-06-12T10:30:45Z</time>
      </trkpt>
      <trkpt lat="43.63065" lon="7.04783">
        <ele>211</ele>
        <time>2009-06-12T10:30:47Z</time>
      </trkpt>
      <trkpt lat="43.63061" lon="7.04758">
        <ele>210</ele>
        <time>2009-06-12T10:30:55Z</time>
      </trkpt>
      <trkpt lat="43.63064" lon="7.04752">
        <ele>210</ele>
        <time>2009-06-12T10:30:56Z</time>
      </trkpt>
      <trkpt lat="43.63064" lon="7.04746">
        <ele>211</ele>
        <time>2009-06-12T10:30:57Z</time>
      </trkpt>
      <trkpt lat="43.63062" lon="7.04731">
        <ele>210</ele>
        <time>2009-06-12T10:31:00Z</time>
      </trkpt>
      <trkpt lat="43.63059" lon="7.0472">
        <ele>213</ele>
        <time>2009-06-12T10:31:02Z</time>
      </trkpt>
      <trkpt lat="43.63056" lon="7.04709">
        <ele>215</ele>
        <time>2009-06-12T10:31:05Z</time>
      </trkpt>
      <trkpt lat="43.63054" lon="7.04688">
        <ele>217</ele>
        <time>2009-06-12T10:31:10Z</time>
      </trkpt>
      <trkpt lat="43.63051" lon="7.04679">
        <ele>218</ele>
        <time>2009-06-12T10:31:13Z</time>
      </trkpt>
      <trkpt lat="43.63047" lon="7.04667">
        <ele>220</ele>
        <time>2009-06-12T10:31:18Z</time>
      </trkpt>
      <trkpt lat="43.63042" lon="7.04663">
        <ele>221</ele>
        <time>2009-06-12T10:31:20Z</time>
      </trkpt>
      <trkpt lat="43.63038" lon="7.04657">
        <ele>222</ele>
        <time>2009-06-12T10:31:23Z</time>
      </trkpt>
      <trkpt lat="43.63027" lon="7.04646">
        <ele>222</ele>
        <time>2009-06-12T10:31:32Z</time>
      </trkpt>
      <trkpt lat="43.6302" lon="7.04646">
        <ele>221</ele>
        <time>2009-06-12T10:31:34Z</time>
      </trkpt>
      <trkpt lat="43.63014" lon="7.04646">
        <ele>221</ele>
        <time>2009-06-12T10:31:37Z</time>
      </trkpt>
      <trkpt lat="43.63006" lon="7.04641">
        <ele>222</ele>
        <time>2009-06-12T10:31:41Z</time>
      </trkpt>
      <trkpt lat="43.63" lon="7.04633">
        <ele>222</ele>
        <time>2009-06-12T10:31:46Z</time>
      </trkpt>
      <trkpt lat="43.62985" lon="7.04615">
        <ele>223</ele>
        <time>2009-06-12T10:31:55Z</time>
      </trkpt>
      <trkpt lat="43.6298" lon="7.04612">
        <ele>224</ele>
        <time>2009-06-12T10:31:57Z</time>
      </trkpt>
      <trkpt lat="43.62979" lon="7.04603">
        <ele>224</ele>
        <time>2009-06-12T10:32:01Z</time>
      </trkpt>
      <trkpt lat="43.62974" lon="7.04598">
        <ele>224</ele>
        <time>2009-06-12T10:32:05Z</time>
      </trkpt>
      <trkpt lat="43.62967" lon="7.04591">
        <ele>223</ele>
        <time>2009-06-12T10:32:11Z</time>
      </trkpt>
      <trkpt lat="43.62961" lon="7.04591">
        <ele>223</ele>
        <time>2009-06-12T10:32:14Z</time>
      </trkpt>
      <trkpt lat="43.62954" lon="7.04586">
        <ele>222</ele>
        <time>2009-06-12T10:32:18Z</time>
      </trkpt>
      <trkpt lat="43.62948" lon="7.04578">
        <ele>223</ele>
        <time>2009-06-12T10:32:21Z</time>
      </trkpt>
      <trkpt lat="43.62947" lon="7.0457">
        <ele>225</ele>
        <time>2009-06-12T10:32:23Z</time>
      </trkpt>
      <trkpt lat="43.62942" lon="7.04566">
        <ele>225</ele>
        <time>2009-06-12T10:32:25Z</time>
      </trkpt>
      <trkpt lat="43.62935" lon="7.04564">
        <ele>226</ele>
        <time>2009-06-12T10:32:27Z</time>
      </trkpt>
      <trkpt lat="43.62921" lon="7.04555">
        <ele>226</ele>
        <time>2009-06-12T10:32:36Z</time>
      </trkpt>
      <trkpt lat="43.62921" lon="7.04547">
        <ele>227</ele>
        <time>2009-06-12T10:32:37Z</time>
      </trkpt>
      <trkpt lat="43.62926" lon="7.04542">
        <ele>226</ele>
        <time>2009-06-12T10:32:38Z</time>
      </trkpt>
      <trkpt lat="43.62922" lon="7.04537">
        <ele>225</ele>
        <time>2009-06-12T10:32:41Z</time>
      </trkpt>
      <trkpt lat="43.62922" lon="7.04528">
        <ele>225</ele>
        <time>2009-06-12T10:32:43Z</time>
      </trkpt>
      <trkpt lat="43.62918" lon="7.0452">
        <ele>225</ele>
        <time>2009-06-12T10:32:46Z</time>
      </trkpt>
      <trkpt lat="43.62913" lon="7.0452">
        <ele>226</ele>
        <time>2009-06-12T10:32:47Z</time>
      </trkpt>
      <trkpt lat="43.62909" lon="7.04515">
        <ele>224</ele>
        <time>2009-06-12T10:32:50Z</time>
      </trkpt>
      <trkpt lat="43.62902" lon="7.04495">
        <ele>225</ele>
        <time>2009-06-12T10:32:59Z</time>
      </trkpt>
      <trkpt lat="43.62911" lon="7.04482">
        <ele>224</ele>
        <time>2009-06-12T10:33:00Z</time>
      </trkpt>
      <trkpt lat="43.62913" lon="7.04476">
        <ele>227</ele>
        <time>2009-06-12T10:33:11Z</time>
      </trkpt>
      <trkpt lat="43.62915" lon="7.04469">
        <ele>230</ele>
        <time>2009-06-12T10:33:14Z</time>
      </trkpt>
      <trkpt lat="43.62912" lon="7.04454">
        <ele>233</ele>
        <time>2009-06-12T10:33:18Z</time>
      </trkpt>
      <trkpt lat="43.62909" lon="7.04445">
        <ele>237</ele>
        <time>2009-06-12T10:33:22Z</time>
      </trkpt>
      <trkpt lat="43.62905" lon="7.04434">
        <ele>239</ele>
        <time>2009-06-12T10:33:26Z</time>
      </trkpt>
      <trkpt lat="43.62905" lon="7.04407">
        <ele>241</ele>
        <time>2009-06-12T10:33:35Z</time>
      </trkpt>
      <trkpt lat="43.62909" lon="7.04395">
        <ele>243</ele>
        <time>2009-06-12T10:33:39Z</time>
      </trkpt>
      <trkpt lat="43.62913" lon="7.04383">
        <ele>244</ele>
        <time>2009-06-12T10:33:43Z</time>
      </trkpt>
      <trkpt lat="43.62933" lon="7.04387">
        <ele>251</ele>
        <time>2009-06-12T10:34:00Z</time>
      </trkpt>
      <trkpt lat="43.62941" lon="7.04391">
        <ele>253</ele>
        <time>2009-06-12T10:34:04Z</time>
      </trkpt>
      <trkpt lat="43.62954" lon="7.04393">
        <ele>257</ele>
        <time>2009-06-12T10:34:12Z</time>
      </trkpt>
      <trkpt lat="43.62963" lon="7.04388">
        <ele>260</ele>
        <time>2009-06-12T10:34:16Z</time>
      </trkpt>
      <trkpt lat="43.62972" lon="7.04382">
        <ele>264</ele>
        <time>2009-06-12T10:34:20Z</time>
      </trkpt>
      <trkpt lat="43.6298" lon="7.04381">
        <ele>266</ele>
        <time>2009-06-12T10:34:24Z</time>
      </trkpt>
      <trkpt lat="43.62997" lon="7.04376">
        <ele>268</ele>
        <time>2009-06-12T10:34:33Z</time>
      </trkpt>
      <trkpt lat="43.63007" lon="7.0437">
        <ele>272</ele>
        <time>2009-06-12T10:34:37Z</time>
      </trkpt>
      <trkpt lat="43.63013" lon="7.04365">
        <ele>274</ele>
        <time>2009-06-12T10:34:41Z</time>
      </trkpt>
      <trkpt lat="43.63022" lon="7.04362">
        <ele>276</ele>
        <time>2009-06-12T10:34:45Z</time>
      </trkpt>
      <trkpt lat="43.63033" lon="7.04365">
        <ele>276</ele>
        <time>2009-06-12T10:34:49Z</time>
      </trkpt>
      <trkpt lat="43.63052" lon="7.04366">
        <ele>277</ele>
        <time>2009-06-12T10:34:58Z</time>
      </trkpt>
      <trkpt lat="43.63062" lon="7.04363">
        <ele>278</ele>
        <time>2009-06-12T10:35:02Z</time>
      </trkpt>
      <trkpt lat="43.63071" lon="7.04356">
        <ele>280</ele>
        <time>2009-06-12T10:35:06Z</time>
      </trkpt>
      <trkpt lat="43.63082" lon="7.04349">
        <ele>283</ele>
        <time>2009-06-12T10:35:11Z</time>
      </trkpt>
      <trkpt lat="43.63088" lon="7.04345">
        <ele>283</ele>
        <time>2009-06-12T10:35:14Z</time>
      </trkpt>
      <trkpt lat="43.63095" lon="7.04344">
        <ele>284</ele>
        <time>2009-06-12T10:35:18Z</time>
      </trkpt>
      <trkpt lat="43.63103" lon="7.04338">
        <ele>284</ele>
        <time>2009-06-12T10:35:22Z</time>
      </trkpt>
      <trkpt lat="43.63106" lon="7.04331">
        <ele>285</ele>
        <time>2009-06-12T10:35:25Z</time>
      </trkpt>
      <trkpt lat="43.63111" lon="7.04326">
        <ele>285</ele>
        <time>2009-06-12T10:35:28Z</time>
      </trkpt>
      <trkpt lat="43.63116" lon="7.04326">
        <ele>286</ele>
        <time>2009-06-12T10:35:31Z</time>
      </trkpt>
      <trkpt lat="43.63129" lon="7.04321">
        <ele>287</ele>
        <time>2009-06-12T10:35:39Z</time>
      </trkpt>
      <trkpt lat="43.63135" lon="7.04318">
        <ele>287</ele>
        <time>2009-06-12T10:35:43Z</time>
      </trkpt>
      <trkpt lat="43.63144" lon="7.04314">
        <ele>287</ele>
        <time>2009-06-12T10:35:47Z</time>
      </trkpt>
      <trkpt lat="43.63146" lon="7.04301">
        <ele>286</ele>
        <time>2009-06-12T10:35:51Z</time>
      </trkpt>
      <trkpt lat="43.63149" lon="7.04293">
        <ele>284</ele>
        <time>2009-06-12T10:35:55Z</time>
      </trkpt>
      <trkpt lat="43.63149" lon="7.04269">
        <ele>284</ele>
        <time>2009-06-12T10:36:04Z</time>
      </trkpt>
      <trkpt lat="43.63144" lon="7.0427">
        <ele>284</ele>
        <time>2009-06-12T10:36:06Z</time>
      </trkpt>
      <trkpt lat="43.6314" lon="7.04264">
        <ele>284</ele>
        <time>2009-06-12T10:36:10Z</time>
      </trkpt>
      <trkpt lat="43.63134" lon="7.0426">
        <ele>283</ele>
        <time>2009-06-12T10:36:14Z</time>
      </trkpt>
      <trkpt lat="43.63128" lon="7.04254">
        <ele>282</ele>
        <time>2009-06-12T10:36:17Z</time>
      </trkpt>
      <trkpt lat="43.63122" lon="7.04246">
        <ele>282</ele>
        <time>2009-06-12T10:36:21Z</time>
      </trkpt>
      <trkpt lat="43.63113" lon="7.04236">
        <ele>281</ele>
        <time>2009-06-12T10:36:25Z</time>
      </trkpt>
      <trkpt lat="43.63097" lon="7.04215">
        <ele>283</ele>
        <time>2009-06-12T10:36:34Z</time>
      </trkpt>
      <trkpt lat="43.63089" lon="7.04201">
        <ele>282</ele>
        <time>2009-06-12T10:36:38Z</time>
      </trkpt>
      <trkpt lat="43.6308" lon="7.04188">
        <ele>282</ele>
        <time>2009-06-12T10:36:42Z</time>
      </trkpt>
      <trkpt lat="43.63071" lon="7.04177">
        <ele>280</ele>
        <time>2009-06-12T10:36:45Z</time>
      </trkpt>
      <trkpt lat="43.63059" lon="7.04164">
        <ele>281</ele>
        <time>2009-06-12T10:36:49Z</time>
      </trkpt>
      <trkpt lat="43.63038" lon="7.04142">
        <ele>280</ele>
        <time>2009-06-12T10:36:59Z</time>
      </trkpt>
      <trkpt lat="43.63035" lon="7.04134">
        <ele>280</ele>
        <time>2009-06-12T10:37:01Z</time>
      </trkpt>
      <trkpt lat="43.6303" lon="7.04123">
        <ele>279</ele>
        <time>2009-06-12T10:37:04Z</time>
      </trkpt>
      <trkpt lat="43.63033" lon="7.04117">
        <ele>279</ele>
        <time>2009-06-12T10:37:05Z</time>
      </trkpt>
      <trkpt lat="43.63024" lon="7.04097">
        <ele>280</ele>
        <time>2009-06-12T10:37:12Z</time>
      </trkpt>
      <trkpt lat="43.63014" lon="7.04088">
        <ele>281</ele>
        <time>2009-06-12T10:37:16Z</time>
      </trkpt>
      <trkpt lat="43.63006" lon="7.04084">
        <ele>282</ele>
        <time>2009-06-12T10:37:20Z</time>
      </trkpt>
      <trkpt lat="43.63" lon="7.04087">
        <ele>282</ele>
        <time>2009-06-12T10:37:21Z</time>
      </trkpt>
      <trkpt lat="43.6299" lon="7.04087">
        <ele>282</ele>
        <time>2009-06-12T10:37:24Z</time>
      </trkpt>
      <trkpt lat="43.6296" lon="7.04082">
        <ele>282</ele>
        <time>2009-06-12T10:37:33Z</time>
      </trkpt>
      <trkpt lat="43.62948" lon="7.04064">
        <ele>282</ele>
        <time>2009-06-12T10:37:37Z</time>
      </trkpt>
      <trkpt lat="43.62947" lon="7.04058">
        <ele>281</ele>
        <time>2009-06-12T10:37:38Z</time>
      </trkpt>
      <trkpt lat="43.62941" lon="7.04049">
        <ele>280</ele>
        <time>2009-06-12T10:37:41Z</time>
      </trkpt>
      <trkpt lat="43.62935" lon="7.04039">
        <ele>280</ele>
        <time>2009-06-12T10:37:45Z</time>
      </trkpt>
      <trkpt lat="43.62936" lon="7.04033">
        <ele>282</ele>
        <time>2009-06-12T10:37:58Z</time>
      </trkpt>
      <trkpt lat="43.62932" lon="7.04032">
        <ele>281</ele>
        <time>2009-06-12T10:38:18Z</time>
      </trkpt>
      <trkpt lat="43.62932" lon="7.04031">
        <ele>280</ele>
        <time>2009-06-12T10:38:19Z</time>
      </trkpt>
      <trkpt lat="43.62932" lon="7.04031">
        <ele>280</ele>
        <time>2009-06-12T10:38:19Z</time>
      </trkpt>
      <trkpt lat="43.62932" lon="7.04026">
        <ele>278</ele>
        <time>2009-06-12T10:38:27Z</time>
      </trkpt>
      <trkpt lat="43.62923" lon="7.03994">
        <ele>280</ele>
        <time>2009-06-12T10:38:35Z</time>
      </trkpt>
      <trkpt lat="43.62918" lon="7.03981">
        <ele>280</ele>
        <time>2009-06-12T10:38:39Z</time>
      </trkpt>
      <trkpt lat="43.62915" lon="7.0397">
        <ele>279</ele>
        <time>2009-06-12T10:38:43Z</time>
      </trkpt>
      <trkpt lat="43.62907" lon="7.03962">
        <ele>278</ele>
        <time>2009-06-12T10:38:47Z</time>
      </trkpt>
      <trkpt lat="43.62904" lon="7.03951">
        <ele>278</ele>
        <time>2009-06-12T10:38:51Z</time>
      </trkpt>
      <trkpt lat="43.62899" lon="7.03928">
        <ele>279</ele>
        <time>2009-06-12T10:39:00Z</time>
      </trkpt>
      <trkpt lat="43.62901" lon="7.03916">
        <ele>279</ele>
        <time>2009-06-12T10:39:04Z</time>
      </trkpt>
      <trkpt lat="43.62899" lon="7.03892">
        <ele>279</ele>
        <time>2009-06-12T10:39:12Z</time>
      </trkpt>
      <trkpt lat="43.62899" lon="7.03874">
        <ele>277</ele>
        <time>2009-06-12T10:39:16Z</time>
      </trkpt>
      <trkpt lat="43.62899" lon="7.03859">
        <ele>277</ele>
        <time>2009-06-12T10:39:20Z</time>
      </trkpt>
      <trkpt lat="43.62898" lon="7.03852">
        <ele>277</ele>
        <time>2009-06-12T10:39:21Z</time>
      </trkpt>
      <trkpt lat="43.62898" lon="7.0384">
        <ele>277</ele>
        <time>2009-06-12T10:39:24Z</time>
      </trkpt>
      <trkpt lat="43.62906" lon="7.03832">
        <ele>278</ele>
        <time>2009-06-12T10:39:25Z</time>
      </trkpt>
      <trkpt lat="43.62916" lon="7.03797">
        <ele>279</ele>
        <time>2009-06-12T10:39:34Z</time>
      </trkpt>
      <trkpt lat="43.62919" lon="7.0379">
        <ele>279</ele>
        <time>2009-06-12T10:39:36Z</time>
      </trkpt>
      <trkpt lat="43.6292" lon="7.03781">
        <ele>279</ele>
        <time>2009-06-12T10:39:39Z</time>
      </trkpt>
      <trkpt lat="43.62919" lon="7.0377">
        <ele>279</ele>
        <time>2009-06-12T10:39:43Z</time>
      </trkpt>
      <trkpt lat="43.62916" lon="7.03763">
        <ele>280</ele>
        <time>2009-06-12T10:39:47Z</time>
      </trkpt>
      <trkpt lat="43.6291" lon="7.03762">
        <ele>280</ele>
        <time>2009-06-12T10:39:48Z</time>
      </trkpt>
      <trkpt lat="43.62907" lon="7.03748">
        <ele>280</ele>
        <time>2009-06-12T10:39:52Z</time>
      </trkpt>
      <trkpt lat="43.62896" lon="7.03716">
        <ele>280</ele>
        <time>2009-06-12T10:40:01Z</time>
      </trkpt>
      <trkpt lat="43.62893" lon="7.03705">
        <ele>279</ele>
        <time>2009-06-12T10:40:03Z</time>
      </trkpt>
      <trkpt lat="43.62887" lon="7.03694">
        <ele>279</ele>
        <time>2009-06-12T10:40:06Z</time>
      </trkpt>
      <trkpt lat="43.62875" lon="7.03672">
        <ele>278</ele>
        <time>2009-06-12T10:40:11Z</time>
      </trkpt>
      <trkpt lat="43.62867" lon="7.0366">
        <ele>278</ele>
        <time>2009-06-12T10:40:14Z</time>
      </trkpt>
      <trkpt lat="43.6286" lon="7.03647">
        <ele>278</ele>
        <time>2009-06-12T10:40:18Z</time>
      </trkpt>
      <trkpt lat="43.62851" lon="7.03635">
        <ele>277</ele>
        <time>2009-06-12T10:40:22Z</time>
      </trkpt>
      <trkpt lat="43.6284" lon="7.03633">
        <ele>277</ele>
        <time>2009-06-12T10:40:26Z</time>
      </trkpt>
      <trkpt lat="43.62843" lon="7.03622">
        <ele>279</ele>
        <time>2009-06-12T10:40:27Z</time>
      </trkpt>
      <trkpt lat="43.62847" lon="7.03576">
        <ele>279</ele>
        <time>2009-06-12T10:40:36Z</time>
      </trkpt>
      <trkpt lat="43.62853" lon="7.03561">
        <ele>279</ele>
        <time>2009-06-12T10:40:37Z</time>
      </trkpt>
      <trkpt lat="43.62858" lon="7.03547">
        <ele>278</ele>
        <time>2009-06-12T10:40:38Z</time>
      </trkpt>
      <trkpt lat="43.62862" lon="7.03532">
        <ele>278</ele>
        <time>2009-06-12T10:40:41Z</time>
      </trkpt>
      <trkpt lat="43.62863" lon="7.03521">
        <ele>278</ele>
        <time>2009-06-12T10:40:42Z</time>
      </trkpt>
      <trkpt lat="43.62867" lon="7.03505">
        <ele>278</ele>
        <time>2009-06-12T10:40:45Z</time>
      </trkpt>
      <trkpt lat="43.62868" lon="7.03496">
        <ele>279</ele>
        <time>2009-06-12T10:40:46Z</time>
      </trkpt>
      <trkpt lat="43.62871" lon="7.03481">
        <ele>278</ele>
        <time>2009-06-12T10:40:49Z</time>
      </trkpt>
      <trkpt lat="43.62877" lon="7.03466">
        <ele>280</ele>
        <time>2009-06-12T10:40:53Z</time>
      </trkpt>
      <trkpt lat="43.6288" lon="7.03459">
        <ele>280</ele>
        <time>2009-06-12T10:40:54Z</time>
      </trkpt>
      <trkpt lat="43.62894" lon="7.03426">
        <ele>280</ele>
        <time>2009-06-12T10:41:03Z</time>
      </trkpt>
      <trkpt lat="43.62902" lon="7.03416">
        <ele>281</ele>
        <time>2009-06-12T10:41:12Z</time>
      </trkpt>
      <trkpt lat="43.62903" lon="7.03406">
        <ele>280</ele>
        <time>2009-06-12T10:41:17Z</time>
      </trkpt>
      <trkpt lat="43.62904" lon="7.034">
        <ele>280</ele>
        <time>2009-06-12T10:41:20Z</time>
      </trkpt>
      <trkpt lat="43.62904" lon="7.03393">
        <ele>279</ele>
        <time>2009-06-12T10:41:24Z</time>
      </trkpt>
      <trkpt lat="43.62896" lon="7.03349">
        <ele>279</ele>
        <time>2009-06-12T10:41:34Z</time>
      </trkpt>
      <trkpt lat="43.62896" lon="7.0334">
        <ele>279</ele>
        <time>2009-06-12T10:41:35Z</time>
      </trkpt>
      <trkpt lat="43.6289" lon="7.03319">
        <ele>279</ele>
        <time>2009-06-12T10:41:39Z</time>
      </trkpt>
      <trkpt lat="43.62888" lon="7.03312">
        <ele>279</ele>
        <time>2009-06-12T10:41:40Z</time>
      </trkpt>
      <trkpt lat="43.62885" lon="7.03304">
        <ele>278</ele>
        <time>2009-06-12T10:41:43Z</time>
      </trkpt>
      <trkpt lat="43.62883" lon="7.03295">
        <ele>278</ele>
        <time>2009-06-12T10:41:47Z</time>
      </trkpt>
      <trkpt lat="43.62877" lon="7.03289">
        <ele>278</ele>
        <time>2009-06-12T10:41:51Z</time>
      </trkpt>
      <trkpt lat="43.62866" lon="7.03276">
        <ele>279</ele>
        <time>2009-06-12T10:42:00Z</time>
      </trkpt>
      <trkpt lat="43.62861" lon="7.03267">
        <ele>277</ele>
        <time>2009-06-12T10:42:05Z</time>
      </trkpt>
      <trkpt lat="43.62857" lon="7.03253">
        <ele>277</ele>
        <time>2009-06-12T10:42:10Z</time>
      </trkpt>
      <trkpt lat="43.62855" lon="7.03246">
        <ele>277</ele>
        <time>2009-06-12T10:42:13Z</time>
      </trkpt>
      <trkpt lat="43.62853" lon="7.03239">
        <ele>275</ele>
        <time>2009-06-12T10:42:15Z</time>
      </trkpt>
      <trkpt lat="43.6285" lon="7.03233">
        <ele>275</ele>
        <time>2009-06-12T10:42:18Z</time>
      </trkpt>
      <trkpt lat="43.62845" lon="7.03225">
        <ele>274</ele>
        <time>2009-06-12T10:42:22Z</time>
      </trkpt>
      <trkpt lat="43.62843" lon="7.03216">
        <ele>274</ele>
        <time>2009-06-12T10:42:26Z</time>
      </trkpt>
      <trkpt lat="43.62843" lon="7.03203">
        <ele>274</ele>
        <time>2009-06-12T10:42:35Z</time>
      </trkpt>
      <trkpt lat="43.62845" lon="7.03197">
        <ele>274</ele>
        <time>2009-06-12T10:42:39Z</time>
      </trkpt>
      <trkpt lat="43.62847" lon="7.03187">
        <ele>274</ele>
        <time>2009-06-12T10:42:43Z</time>
      </trkpt>
      <trkpt lat="43.62848" lon="7.03177">
        <ele>274</ele>
        <time>2009-06-12T10:42:47Z</time>
      </trkpt>
      <trkpt lat="43.62846" lon="7.03168">
        <ele>273</ele>
        <time>2009-06-12T10:42:48Z</time>
      </trkpt>
      <trkpt lat="43.6285" lon="7.03157">
        <ele>273</ele>
        <time>2009-06-12T10:42:49Z</time>
      </trkpt>
      <trkpt lat="43.6285" lon="7.03139">
        <ele>273</ele>
        <time>2009-06-12T10:42:52Z</time>
      </trkpt>
      <trkpt lat="43.62848" lon="7.03129">
        <ele>273</ele>
        <time>2009-06-12T10:42:53Z</time>
      </trkpt>
      <trkpt lat="43.62851" lon="7.03088">
        <ele>272</ele>
        <time>2009-06-12T10:43:01Z</time>
      </trkpt>
      <trkpt lat="43.62853" lon="7.0308">
        <ele>271</ele>
        <time>2009-06-12T10:43:03Z</time>
      </trkpt>
      <trkpt lat="43.62856" lon="7.0307">
        <ele>271</ele>
        <time>2009-06-12T10:43:06Z</time>
      </trkpt>
      <trkpt lat="43.62861" lon="7.0304">
        <ele>270</ele>
        <time>2009-06-12T10:43:12Z</time>
      </trkpt>
      <trkpt lat="43.62861" lon="7.03031">
        <ele>270</ele>
        <time>2009-06-12T10:43:15Z</time>
      </trkpt>
      <trkpt lat="43.62863" lon="7.03017">
        <ele>269</ele>
        <time>2009-06-12T10:43:19Z</time>
      </trkpt>
      <trkpt lat="43.62862" lon="7.02997">
        <ele>269</ele>
        <time>2009-06-12T10:43:23Z</time>
      </trkpt>
      <trkpt lat="43.62861" lon="7.0299">
        <ele>267</ele>
        <time>2009-06-12T10:43:24Z</time>
      </trkpt>
      <trkpt lat="43.62862" lon="7.02969">
        <ele>266</ele>
        <time>2009-06-12T10:43:32Z</time>
      </trkpt>
      <trkpt lat="43.6286" lon="7.0296">
        <ele>262</ele>
        <time>2009-06-12T10:43:37Z</time>
      </trkpt>
      <trkpt lat="43.62862" lon="7.02949">
        <ele>261</ele>
        <time>2009-06-12T10:43:43Z</time>
      </trkpt>
      <trkpt lat="43.62859" lon="7.02931">
        <ele>259</ele>
        <time>2009-06-12T10:43:47Z</time>
      </trkpt>
      <trkpt lat="43.6286" lon="7.02925">
        <ele>258</ele>
        <time>2009-06-12T10:43:48Z</time>
      </trkpt>
      <trkpt lat="43.62858" lon="7.02896">
        <ele>258</ele>
        <time>2009-06-12T10:43:56Z</time>
      </trkpt>
      <trkpt lat="43.62857" lon="7.0289">
        <ele>256</ele>
        <time>2009-06-12T10:43:57Z</time>
      </trkpt>
      <trkpt lat="43.62856" lon="7.02873">
        <ele>256</ele>
        <time>2009-06-12T10:44:00Z</time>
      </trkpt>
      <trkpt lat="43.62857" lon="7.02866">
        <ele>256</ele>
        <time>2009-06-12T10:44:01Z</time>
      </trkpt>
      <trkpt lat="43.62858" lon="7.02852">
        <ele>255</ele>
        <time>2009-06-12T10:44:04Z</time>
      </trkpt>
      <trkpt lat="43.62866" lon="7.02838">
        <ele>254</ele>
        <time>2009-06-12T10:44:11Z</time>
      </trkpt>
      <trkpt lat="43.62868" lon="7.02825">
        <ele>254</ele>
        <time>2009-06-12T10:44:35Z</time>
      </trkpt>
      <trkpt lat="43.62865" lon="7.0282">
        <ele>252</ele>
        <time>2009-06-12T10:44:40Z</time>
      </trkpt>
      <trkpt lat="43.6287" lon="7.02814">
        <ele>251</ele>
        <time>2009-06-12T10:44:44Z</time>
      </trkpt>
      <trkpt lat="43.62872" lon="7.02808">
        <ele>249</ele>
        <time>2009-06-12T10:44:49Z</time>
      </trkpt>
      <trkpt lat="43.62874" lon="7.02792">
        <ele>247</ele>
        <time>2009-06-12T10:45:01Z</time>
      </trkpt>
      <trkpt lat="43.62877" lon="7.02796">
        <ele>245</ele>
        <time>2009-06-12T10:45:38Z</time>
      </trkpt>
      <trkpt lat="43.6288" lon="7.02793">
        <ele>245</ele>
        <time>2009-06-12T10:45:42Z</time>
      </trkpt>
      <trkpt lat="43.62882" lon="7.02792">
        <ele>245</ele>
        <time>2009-06-12T10:45:45Z</time>
      </trkpt>
      <trkpt lat="43.62887" lon="7.02792">
        <ele>247</ele>
        <time>2009-06-12T10:45:50Z</time>
      </trkpt>
      <trkpt lat="43.62918" lon="7.02784">
        <ele>248</ele>
        <time>2009-06-12T10:45:58Z</time>
      </trkpt>
      <trkpt lat="43.62932" lon="7.02774">
        <ele>252</ele>
        <time>2009-06-12T10:46:02Z</time>
      </trkpt>
      <trkpt lat="43.62935" lon="7.0277">
        <ele>253</ele>
        <time>2009-06-12T10:46:03Z</time>
      </trkpt>
      <trkpt lat="43.6294" lon="7.02763">
        <ele>253</ele>
        <time>2009-06-12T10:46:06Z</time>
      </trkpt>
      <trkpt lat="43.6295" lon="7.02756">
        <ele>257</ele>
        <time>2009-06-12T10:46:10Z</time>
      </trkpt>
      <trkpt lat="43.62954" lon="7.0275">
        <ele>257</ele>
        <time>2009-06-12T10:46:13Z</time>
      </trkpt>
      <trkpt lat="43.62958" lon="7.02741">
        <ele>259</ele>
        <time>2009-06-12T10:46:18Z</time>
      </trkpt>
      <trkpt lat="43.62962" lon="7.02736">
        <ele>260</ele>
        <time>2009-06-12T10:46:21Z</time>
      </trkpt>
      <trkpt lat="43.62966" lon="7.0273">
        <ele>261</ele>
        <time>2009-06-12T10:46:24Z</time>
      </trkpt>
      <trkpt lat="43.62971" lon="7.02725">
        <ele>262</ele>
        <time>2009-06-12T10:46:28Z</time>
      </trkpt>
      <trkpt lat="43.62975" lon="7.02722">
        <ele>263</ele>
        <time>2009-06-12T10:46:31Z</time>
      </trkpt>
      <trkpt lat="43.62986" lon="7.02704">
        <ele>264</ele>
        <time>2009-06-12T10:46:39Z</time>
      </trkpt>
      <trkpt lat="43.62995" lon="7.02694">
        <ele>265</ele>
        <time>2009-06-12T10:46:43Z</time>
      </trkpt>
      <trkpt lat="43.63002" lon="7.02685">
        <ele>264</ele>
        <time>2009-06-12T10:46:47Z</time>
      </trkpt>
      <trkpt lat="43.63007" lon="7.02674">
        <ele>265</ele>
        <time>2009-06-12T10:46:51Z</time>
      </trkpt>
      <trkpt lat="43.63013" lon="7.02661">
        <ele>264</ele>
        <time>2009-06-12T10:46:55Z</time>
      </trkpt>
      <trkpt lat="43.63019" lon="7.02655">
        <ele>264</ele>
        <time>2009-06-12T10:46:56Z</time>
      </trkpt>
      <trkpt lat="43.63027" lon="7.02631">
        <ele>264</ele>
        <time>2009-06-12T10:47:04Z</time>
      </trkpt>
      <trkpt lat="43.63044" lon="7.02608">
        <ele>266</ele>
        <time>2009-06-12T10:47:12Z</time>
      </trkpt>
      <trkpt lat="43.63049" lon="7.02603">
        <ele>265</ele>
        <time>2009-06-12T10:47:13Z</time>
      </trkpt>
      <trkpt lat="43.63058" lon="7.02589">
        <ele>264</ele>
        <time>2009-06-12T10:47:16Z</time>
      </trkpt>
      <trkpt lat="43.6306" lon="7.02582">
        <ele>264</ele>
        <time>2009-06-12T10:47:17Z</time>
      </trkpt>
      <trkpt lat="43.63071" lon="7.02569">
        <ele>263</ele>
        <time>2009-06-12T10:47:20Z</time>
      </trkpt>
      <trkpt lat="43.63084" lon="7.02561">
        <ele>261</ele>
        <time>2009-06-12T10:47:24Z</time>
      </trkpt>
      <trkpt lat="43.63109" lon="7.02556">
        <ele>260</ele>
        <time>2009-06-12T10:47:33Z</time>
      </trkpt>
      <trkpt lat="43.6312" lon="7.02563">
        <ele>259</ele>
        <time>2009-06-12T10:47:36Z</time>
      </trkpt>
      <trkpt lat="43.6313" lon="7.0257">
        <ele>258</ele>
        <time>2009-06-12T10:47:40Z</time>
      </trkpt>
      <trkpt lat="43.63136" lon="7.02581">
        <ele>258</ele>
        <time>2009-06-12T10:47:45Z</time>
      </trkpt>
      <trkpt lat="43.63141" lon="7.026">
        <ele>256</ele>
        <time>2009-06-12T10:47:49Z</time>
      </trkpt>
      <trkpt lat="43.63144" lon="7.0263">
        <ele>253</ele>
        <time>2009-06-12T10:47:58Z</time>
      </trkpt>
      <trkpt lat="43.6314" lon="7.02634">
        <ele>251</ele>
        <time>2009-06-12T10:47:59Z</time>
      </trkpt>
      <trkpt lat="43.63136" lon="7.02642">
        <ele>248</ele>
        <time>2009-06-12T10:48:02Z</time>
      </trkpt>
      <trkpt lat="43.63134" lon="7.02655">
        <ele>246</ele>
        <time>2009-06-12T10:48:06Z</time>
      </trkpt>
      <trkpt lat="43.63128" lon="7.02675">
        <ele>246</ele>
        <time>2009-06-12T10:48:13Z</time>
      </trkpt>
      <trkpt lat="43.63125" lon="7.02685">
        <ele>245</ele>
        <time>2009-06-12T10:48:16Z</time>
      </trkpt>
      <trkpt lat="43.63122" lon="7.02697">
        <ele>245</ele>
        <time>2009-06-12T10:48:20Z</time>
      </trkpt>
      <trkpt lat="43.63119" lon="7.02706">
        <ele>245</ele>
        <time>2009-06-12T10:48:23Z</time>
      </trkpt>
      <trkpt lat="43.63115" lon="7.02711">
        <ele>244</ele>
        <time>2009-06-12T10:48:26Z</time>
      </trkpt>
      <trkpt lat="43.63109" lon="7.02722">
        <ele>244</ele>
        <time>2009-06-12T10:48:29Z</time>
      </trkpt>
      <trkpt lat="43.63106" lon="7.0273">
        <ele>244</ele>
        <time>2009-06-12T10:48:31Z</time>
      </trkpt>
      <trkpt lat="43.63103" lon="7.02739">
        <ele>245</ele>
        <time>2009-06-12T10:48:34Z</time>
      </trkpt>
      <trkpt lat="43.63094" lon="7.02762">
        <ele>245</ele>
        <time>2009-06-12T10:48:43Z</time>
      </trkpt>
      <trkpt lat="43.63091" lon="7.02776">
        <ele>244</ele>
        <time>2009-06-12T10:48:47Z</time>
      </trkpt>
      <trkpt lat="43.63087" lon="7.02788">
        <ele>244</ele>
        <time>2009-06-12T10:48:51Z</time>
      </trkpt>
      <trkpt lat="43.63081" lon="7.02801">
        <ele>243</ele>
        <time>2009-06-12T10:48:55Z</time>
      </trkpt>
      <trkpt lat="43.63076" lon="7.02815">
        <ele>243</ele>
        <time>2009-06-12T10:48:58Z</time>
      </trkpt>
      <trkpt lat="43.63071" lon="7.02855">
        <ele>243</ele>
        <time>2009-06-12T10:49:11Z</time>
      </trkpt>
      <trkpt lat="43.63071" lon="7.02867">
        <ele>242</ele>
        <time>2009-06-12T10:49:14Z</time>
      </trkpt>
      <trkpt lat="43.63071" lon="7.02881">
        <ele>241</ele>
        <time>2009-06-12T10:49:18Z</time>
      </trkpt>
      <trkpt lat="43.63073" lon="7.02894">
        <ele>240</ele>
        <time>2009-06-12T10:49:22Z</time>
      </trkpt>
      <trkpt lat="43.63076" lon="7.02908">
        <ele>239</ele>
        <time>2009-06-12T10:49:26Z</time>
      </trkpt>
      <trkpt lat="43.63085" lon="7.02936">
        <ele>236</ele>
        <time>2009-06-12T10:49:35Z</time>
      </trkpt>
      <trkpt lat="43.6309" lon="7.02942">
        <ele>236</ele>
        <time>2009-06-12T10:49:37Z</time>
      </trkpt>
      <trkpt lat="43.63092" lon="7.0295">
        <ele>236</ele>
        <time>2009-06-12T10:49:39Z</time>
      </trkpt>
      <trkpt lat="43.631" lon="7.02962">
        <ele>235</ele>
        <time>2009-06-12T10:49:44Z</time>
      </trkpt>
      <trkpt lat="43.63099" lon="7.02969">
        <ele>234</ele>
        <time>2009-06-12T10:49:45Z</time>
      </trkpt>
      <trkpt lat="43.63099" lon="7.02977">
        <ele>234</ele>
        <time>2009-06-12T10:49:48Z</time>
      </trkpt>
      <trkpt lat="43.63101" lon="7.02986">
        <ele>235</ele>
        <time>2009-06-12T10:49:52Z</time>
      </trkpt>
      <trkpt lat="43.631" lon="7.02993">
        <ele>235</ele>
        <time>2009-06-12T10:49:53Z</time>
      </trkpt>
      <trkpt lat="43.63103" lon="7.03012">
        <ele>235</ele>
        <time>2009-06-12T10:50:01Z</time>
      </trkpt>
      <trkpt lat="43.63103" lon="7.03018">
        <ele>235</ele>
        <time>2009-06-12T10:50:03Z</time>
      </trkpt>
      <trkpt lat="43.63105" lon="7.03029">
        <ele>236</ele>
        <time>2009-06-12T10:50:05Z</time>
      </trkpt>
      <trkpt lat="43.63111" lon="7.03053">
        <ele>236</ele>
        <time>2009-06-12T10:50:11Z</time>
      </trkpt>
      <trkpt lat="43.63114" lon="7.03061">
        <ele>236</ele>
        <time>2009-06-12T10:50:14Z</time>
      </trkpt>
      <trkpt lat="43.63119" lon="7.03079">
        <ele>236</ele>
        <time>2009-06-12T10:50:18Z</time>
      </trkpt>
      <trkpt lat="43.63116" lon="7.03086">
        <ele>236</ele>
        <time>2009-06-12T10:50:19Z</time>
      </trkpt>
      <trkpt lat="43.63118" lon="7.031">
        <ele>236</ele>
        <time>2009-06-12T10:50:22Z</time>
      </trkpt>
      <trkpt lat="43.63118" lon="7.03106">
        <ele>236</ele>
        <time>2009-06-12T10:50:23Z</time>
      </trkpt>
      <trkpt lat="43.63123" lon="7.03117">
        <ele>236</ele>
        <time>2009-06-12T10:50:25Z</time>
      </trkpt>
      <trkpt lat="43.63127" lon="7.03125">
        <ele>236</ele>
        <time>2009-06-12T10:50:26Z</time>
      </trkpt>
      <trkpt lat="43.63141" lon="7.03159">
        <ele>237</ele>
        <time>2009-06-12T10:50:34Z</time>
      </trkpt>
      <trkpt lat="43.63145" lon="7.03162">
        <ele>237</ele>
        <time>2009-06-12T10:50:35Z</time>
      </trkpt>
      <trkpt lat="43.63146" lon="7.03168">
        <ele>237</ele>
        <time>2009-06-12T10:50:36Z</time>
      </trkpt>
      <trkpt lat="43.63151" lon="7.03182">
        <ele>238</ele>
        <time>2009-06-12T10:50:39Z</time>
      </trkpt>
      <trkpt lat="43.63152" lon="7.03189">
        <ele>238</ele>
        <time>2009-06-12T10:50:40Z</time>
      </trkpt>
      <trkpt lat="43.63153" lon="7.03195">
        <ele>238</ele>
        <time>2009-06-12T10:50:41Z</time>
      </trkpt>
      <trkpt lat="43.63159" lon="7.03212">
        <ele>239</ele>
        <time>2009-06-12T10:50:44Z</time>
      </trkpt>
      <trkpt lat="43.63156" lon="7.03224">
        <ele>240</ele>
        <time>2009-06-12T10:50:45Z</time>
      </trkpt>
      <trkpt lat="43.63163" lon="7.03241">
        <ele>238</ele>
        <time>2009-06-12T10:50:48Z</time>
      </trkpt>
      <trkpt lat="43.63164" lon="7.03248">
        <ele>238</ele>
        <time>2009-06-12T10:50:49Z</time>
      </trkpt>
      <trkpt lat="43.63174" lon="7.03291">
        <ele>237</ele>
        <time>2009-06-12T10:50:58Z</time>
      </trkpt>
      <trkpt lat="43.63176" lon="7.03298">
        <ele>238</ele>
        <time>2009-06-12T10:51:00Z</time>
      </trkpt>
      <trkpt lat="43.63178" lon="7.03307">
        <ele>238</ele>
        <time>2009-06-12T10:51:03Z</time>
      </trkpt>
      <trkpt lat="43.63183" lon="7.03328">
        <ele>235</ele>
        <time>2009-06-12T10:51:07Z</time>
      </trkpt>
      <trkpt lat="43.63183" lon="7.03345">
        <ele>235</ele>
        <time>2009-06-12T10:51:11Z</time>
      </trkpt>
      <trkpt lat="43.6319" lon="7.03348">
        <ele>238</ele>
        <time>2009-06-12T10:51:13Z</time>
      </trkpt>
      <trkpt lat="43.63192" lon="7.0334">
        <ele>246</ele>
        <time>2009-06-12T10:51:18Z</time>
      </trkpt>
      <trkpt lat="43.63193" lon="7.03329">
        <ele>253</ele>
        <time>2009-06-12T10:51:22Z</time>
      </trkpt>
      <trkpt lat="43.63193" lon="7.0332">
        <ele>255</ele>
        <time>2009-06-12T10:51:26Z</time>
      </trkpt>
      <trkpt lat="43.63193" lon="7.03297">
        <ele>257</ele>
        <time>2009-06-12T10:51:35Z</time>
      </trkpt>
      <trkpt lat="43.63195" lon="7.03285">
        <ele>260</ele>
        <time>2009-06-12T10:51:39Z</time>
      </trkpt>
      <trkpt lat="43.63195" lon="7.03277">
        <ele>262</ele>
        <time>2009-06-12T10:51:43Z</time>
      </trkpt>
      <trkpt lat="43.63198" lon="7.03268">
        <ele>264</ele>
        <time>2009-06-12T10:51:46Z</time>
      </trkpt>
      <trkpt lat="43.63204" lon="7.03266">
        <ele>265</ele>
        <time>2009-06-12T10:51:54Z</time>
      </trkpt>
      <trkpt lat="43.63212" lon="7.03281">
        <ele>264</ele>
        <time>2009-06-12T10:52:03Z</time>
      </trkpt>
      <trkpt lat="43.63211" lon="7.03287">
        <ele>264</ele>
        <time>2009-06-12T10:52:04Z</time>
      </trkpt>
      <trkpt lat="43.63213" lon="7.03306">
        <ele>264</ele>
        <time>2009-06-12T10:52:12Z</time>
      </trkpt>
      <trkpt lat="43.6322" lon="7.03308">
        <ele>266</ele>
        <time>2009-06-12T10:52:17Z</time>
      </trkpt>
      <trkpt lat="43.63227" lon="7.03307">
        <ele>267</ele>
        <time>2009-06-12T10:52:20Z</time>
      </trkpt>
      <trkpt lat="43.63235" lon="7.03304">
        <ele>269</ele>
        <time>2009-06-12T10:52:24Z</time>
      </trkpt>
      <trkpt lat="43.6325" lon="7.03291">
        <ele>271</ele>
        <time>2009-06-12T10:52:33Z</time>
      </trkpt>
      <trkpt lat="43.63256" lon="7.03284">
        <ele>273</ele>
        <time>2009-06-12T10:52:37Z</time>
      </trkpt>
      <trkpt lat="43.63265" lon="7.03279">
        <ele>277</ele>
        <time>2009-06-12T10:52:41Z</time>
      </trkpt>
      <trkpt lat="43.63272" lon="7.03271">
        <ele>280</ele>
        <time>2009-06-12T10:52:45Z</time>
      </trkpt>
      <trkpt lat="43.63279" lon="7.03266">
        <ele>283</ele>
        <time>2009-06-12T10:52:49Z</time>
      </trkpt>
      <trkpt lat="43.63293" lon="7.03253">
        <ele>285</ele>
        <time>2009-06-12T10:52:58Z</time>
      </trkpt>
      <trkpt lat="43.63299" lon="7.03246">
        <ele>286</ele>
        <time>2009-06-12T10:53:02Z</time>
      </trkpt>
      <trkpt lat="43.63307" lon="7.03236">
        <ele>287</ele>
        <time>2009-06-12T10:53:06Z</time>
      </trkpt>
      <trkpt lat="43.6332" lon="7.03225">
        <ele>289</ele>
        <time>2009-06-12T10:53:11Z</time>
      </trkpt>
      <trkpt lat="43.63326" lon="7.0322">
        <ele>290</ele>
        <time>2009-06-12T10:53:13Z</time>
      </trkpt>
      <trkpt lat="43.63334" lon="7.03214">
        <ele>291</ele>
        <time>2009-06-12T10:53:18Z</time>
      </trkpt>
      <trkpt lat="43.63341" lon="7.03207">
        <ele>292</ele>
        <time>2009-06-12T10:53:20Z</time>
      </trkpt>
      <trkpt lat="43.63346" lon="7.03202">
        <ele>292</ele>
        <time>2009-06-12T10:53:24Z</time>
      </trkpt>
      <trkpt lat="43.63354" lon="7.03195">
        <ele>294</ele>
        <time>2009-06-12T10:53:27Z</time>
      </trkpt>
      <trkpt lat="43.63368" lon="7.03175">
        <ele>296</ele>
        <time>2009-06-12T10:53:36Z</time>
      </trkpt>
      <trkpt lat="43.63373" lon="7.03172">
        <ele>295</ele>
        <time>2009-06-12T10:53:37Z</time>
      </trkpt>
      <trkpt lat="43.63377" lon="7.03161">
        <ele>296</ele>
        <time>2009-06-12T10:53:40Z</time>
      </trkpt>
      <trkpt lat="43.63383" lon="7.0315">
        <ele>297</ele>
        <time>2009-06-12T10:53:44Z</time>
      </trkpt>
      <trkpt lat="43.63385" lon="7.03137">
        <ele>299</ele>
        <time>2009-06-12T10:53:48Z</time>
      </trkpt>
      <trkpt lat="43.6339" lon="7.03124">
        <ele>301</ele>
        <time>2009-06-12T10:53:52Z</time>
      </trkpt>
      <trkpt lat="43.63399" lon="7.03093">
        <ele>302</ele>
        <time>2009-06-12T10:54:01Z</time>
      </trkpt>
      <trkpt lat="43.63399" lon="7.03079">
        <ele>302</ele>
        <time>2009-06-12T10:54:05Z</time>
      </trkpt>
      <trkpt lat="43.63402" lon="7.03071">
        <ele>302</ele>
        <time>2009-06-12T10:54:07Z</time>
      </trkpt>
      <trkpt lat="43.63402" lon="7.03058">
        <ele>304</ele>
        <time>2009-06-12T10:54:11Z</time>
      </trkpt>
      <trkpt lat="43.63402" lon="7.03049">
        <ele>303</ele>
        <time>2009-06-12T10:54:14Z</time>
      </trkpt>
      <trkpt lat="43.634" lon="7.03034">
        <ele>304</ele>
        <time>2009-06-12T10:54:18Z</time>
      </trkpt>
      <trkpt lat="43.63401" lon="7.0302">
        <ele>305</ele>
        <time>2009-06-12T10:54:22Z</time>
      </trkpt>
      <trkpt lat="43.63399" lon="7.03006">
        <ele>306</ele>
        <time>2009-06-12T10:54:26Z</time>
      </trkpt>
      <trkpt lat="43.63397" lon="7.02989">
        <ele>307</ele>
        <time>2009-06-12T10:54:35Z</time>
      </trkpt>
      <trkpt lat="43.63402" lon="7.02988">
        <ele>306</ele>
        <time>2009-06-12T10:54:39Z</time>
      </trkpt>
      <trkpt lat="43.63402" lon="7.02982">
        <ele>300</ele>
        <time>2009-06-12T10:54:48Z</time>
      </trkpt>
      <trkpt lat="43.63406" lon="7.02982">
        <ele>298</ele>
        <time>2009-06-12T10:54:52Z</time>
      </trkpt>
      <trkpt lat="43.63409" lon="7.02983">
        <ele>294</ele>
        <time>2009-06-12T10:55:06Z</time>
      </trkpt>
      <trkpt lat="43.63411" lon="7.02984">
        <ele>289</ele>
        <time>2009-06-12T10:55:12Z</time>
      </trkpt>
      <trkpt lat="43.63412" lon="7.02985">
        <ele>288</ele>
        <time>2009-06-12T10:55:17Z</time>
      </trkpt>
      <trkpt lat="43.63415" lon="7.02989">
        <ele>284</ele>
        <time>2009-06-12T10:56:00Z</time>
      </trkpt>
      <trkpt lat="43.63415" lon="7.0299">
        <ele>284</ele>
        <time>2009-06-12T10:56:03Z</time>
      </trkpt>
      <trkpt lat="43.6341" lon="7.02987">
        <ele>283</ele>
        <time>2009-06-12T10:56:11Z</time>
      </trkpt>
      <trkpt lat="43.6341" lon="7.02987">
        <ele>283</ele>
        <time>2009-06-12T10:56:13Z</time>
      </trkpt>
      <trkpt lat="43.63409" lon="7.02987">
        <ele>283</ele>
        <time>2009-06-12T10:56:24Z</time>
      </trkpt>
      <trkpt lat="43.63416" lon="7.0296">
        <ele>279</ele>
        <time>2009-06-12T10:56:27Z</time>
      </trkpt>
      <trkpt lat="43.63421" lon="7.02927">
        <ele>280</ele>
        <time>2009-06-12T10:56:36Z</time>
      </trkpt>
      <trkpt lat="43.63421" lon="7.0292">
        <ele>281</ele>
        <time>2009-06-12T10:56:37Z</time>
      </trkpt>
      <trkpt lat="43.6342" lon="7.02909">
        <ele>281</ele>
        <time>2009-06-12T10:56:40Z</time>
      </trkpt>
      <trkpt lat="43.63421" lon="7.02896">
        <ele>281</ele>
        <time>2009-06-12T10:56:44Z</time>
      </trkpt>
      <trkpt lat="43.6342" lon="7.0289">
        <ele>282</ele>
        <time>2009-06-12T10:56:53Z</time>
      </trkpt>
      <trkpt lat="43.63427" lon="7.02884">
        <ele>282</ele>
        <time>2009-06-12T10:57:11Z</time>
      </trkpt>
      <trkpt lat="43.63428" lon="7.02876">
        <ele>285</ele>
        <time>2009-06-12T10:57:24Z</time>
      </trkpt>
      <trkpt lat="43.63428" lon="7.02874">
        <ele>286</ele>
        <time>2009-06-12T10:57:25Z</time>
      </trkpt>
      <trkpt lat="43.63427" lon="7.0287">
        <ele>284</ele>
        <time>2009-06-12T10:57:41Z</time>
      </trkpt>
      <trkpt lat="43.63442" lon="7.02805">
        <ele>285</ele>
        <time>2009-06-12T10:57:44Z</time>
      </trkpt>
      <trkpt lat="43.63445" lon="7.02797">
        <ele>284</ele>
        <time>2009-06-12T10:57:46Z</time>
      </trkpt>
      <trkpt lat="43.63462" lon="7.02781">
        <ele>284</ele>
        <time>2009-06-12T10:57:54Z</time>
      </trkpt>
      <trkpt lat="43.6346" lon="7.02789">
        <ele>283</ele>
        <time>2009-06-12T10:57:56Z</time>
      </trkpt>
      <trkpt lat="43.63466" lon="7.02792">
        <ele>283</ele>
        <time>2009-06-12T10:58:00Z</time>
      </trkpt>
      <trkpt lat="43.63472" lon="7.02791">
        <ele>283</ele>
        <time>2009-06-12T10:58:02Z</time>
      </trkpt>
      <trkpt lat="43.6348" lon="7.02788">
        <ele>282</ele>
        <time>2009-06-12T10:58:05Z</time>
      </trkpt>
      <trkpt lat="43.63486" lon="7.02785">
        <ele>283</ele>
        <time>2009-06-12T10:58:06Z</time>
      </trkpt>
      <trkpt lat="43.63492" lon="7.02781">
        <ele>285</ele>
        <time>2009-06-12T10:58:07Z</time>
      </trkpt>
      <trkpt lat="43.63509" lon="7.02776">
        <ele>284</ele>
        <time>2009-06-12T10:58:11Z</time>
      </trkpt>
      <trkpt lat="43.63517" lon="7.02767">
        <ele>285</ele>
        <time>2009-06-12T10:58:14Z</time>
      </trkpt>
      <trkpt lat="43.63527" lon="7.02754">
        <ele>285</ele>
        <time>2009-06-12T10:58:18Z</time>
      </trkpt>
      <trkpt lat="43.63537" lon="7.02739">
        <ele>285</ele>
        <time>2009-06-12T10:58:22Z</time>
      </trkpt>
      <trkpt lat="43.6355" lon="7.02726">
        <ele>285</ele>
        <time>2009-06-12T10:58:26Z</time>
      </trkpt>
      <trkpt lat="43.63554" lon="7.02721">
        <ele>285</ele>
        <time>2009-06-12T10:58:27Z</time>
      </trkpt>
      <trkpt lat="43.63572" lon="7.02693">
        <ele>285</ele>
        <time>2009-06-12T10:58:35Z</time>
      </trkpt>
      <trkpt lat="43.63582" lon="7.02681">
        <ele>289</ele>
        <time>2009-06-12T10:58:36Z</time>
      </trkpt>
      <trkpt lat="43.63579" lon="7.02675">
        <ele>291</ele>
        <time>2009-06-12T10:58:40Z</time>
      </trkpt>
      <trkpt lat="43.63582" lon="7.02671">
        <ele>293</ele>
        <time>2009-06-12T10:58:44Z</time>
      </trkpt>
      <trkpt lat="43.63585" lon="7.02655">
        <ele>290</ele>
        <time>2009-06-12T10:58:52Z</time>
      </trkpt>
      <trkpt lat="43.63604" lon="7.02664">
        <ele>287</ele>
        <time>2009-06-12T10:59:01Z</time>
      </trkpt>
      <trkpt lat="43.63604" lon="7.02674">
        <ele>286</ele>
        <time>2009-06-12T10:59:02Z</time>
      </trkpt>
      <trkpt lat="43.63609" lon="7.02688">
        <ele>286</ele>
        <time>2009-06-12T10:59:05Z</time>
      </trkpt>
      <trkpt lat="43.63611" lon="7.02694">
        <ele>286</ele>
        <time>2009-06-12T10:59:06Z</time>
      </trkpt>
      <trkpt lat="43.63621" lon="7.02703">
        <ele>285</ele>
        <time>2009-06-12T10:59:10Z</time>
      </trkpt>
      <trkpt lat="43.6363" lon="7.02708">
        <ele>285</ele>
        <time>2009-06-12T10:59:13Z</time>
      </trkpt>
      <trkpt lat="43.63635" lon="7.02701">
        <ele>285</ele>
        <time>2009-06-12T10:59:14Z</time>
      </trkpt>
      <trkpt lat="43.63648" lon="7.02696">
        <ele>285</ele>
        <time>2009-06-12T10:59:17Z</time>
      </trkpt>
      <trkpt lat="43.63653" lon="7.02691">
        <ele>285</ele>
        <time>2009-06-12T10:59:18Z</time>
      </trkpt>
      <trkpt lat="43.63665" lon="7.02684">
        <ele>286</ele>
        <time>2009-06-12T10:59:21Z</time>
      </trkpt>
      <trkpt lat="43.6367" lon="7.02679">
        <ele>287</ele>
        <time>2009-06-12T10:59:22Z</time>
      </trkpt>
      <trkpt lat="43.6368" lon="7.02675">
        <ele>287</ele>
        <time>2009-06-12T10:59:25Z</time>
      </trkpt>
      <trkpt lat="43.63688" lon="7.02673">
        <ele>287</ele>
        <time>2009-06-12T10:59:26Z</time>
      </trkpt>
      <trkpt lat="43.6372" lon="7.02658">
        <ele>286</ele>
        <time>2009-06-12T10:59:34Z</time>
      </trkpt>
      <trkpt lat="43.63726" lon="7.02661">
        <ele>286</ele>
        <time>2009-06-12T10:59:35Z</time>
      </trkpt>
      <trkpt lat="43.63736" lon="7.02654">
        <ele>286</ele>
        <time>2009-06-12T10:59:38Z</time>
      </trkpt>
      <trkpt lat="43.63743" lon="7.02649">
        <ele>286</ele>
        <time>2009-06-12T10:59:39Z</time>
      </trkpt>
      <trkpt lat="43.63756" lon="7.02643">
        <ele>286</ele>
        <time>2009-06-12T10:59:42Z</time>
      </trkpt>
      <trkpt lat="43.63767" lon="7.02638">
        <ele>286</ele>
        <time>2009-06-12T10:59:46Z</time>
      </trkpt>
      <trkpt lat="43.63781" lon="7.02645">
        <ele>281</ele>
        <time>2009-06-12T10:59:50Z</time>
      </trkpt>
      <trkpt lat="43.63784" lon="7.0265">
        <ele>280</ele>
        <time>2009-06-12T10:59:51Z</time>
      </trkpt>
      <trkpt lat="43.63785" lon="7.02657">
        <ele>279</ele>
        <time>2009-06-12T10:59:59Z</time>
      </trkpt>
      <trkpt lat="43.6378" lon="7.02657">
        <ele>278</ele>
        <time>2009-06-12T11:00:00Z</time>
      </trkpt>
      <trkpt lat="43.63785" lon="7.02659">
        <ele>277</ele>
        <time>2009-06-12T11:00:04Z</time>
      </trkpt>
      <trkpt lat="43.63788" lon="7.02664">
        <ele>272</ele>
        <time>2009-06-12T11:00:12Z</time>
      </trkpt>
      <trkpt lat="43.63786" lon="7.02666">
        <ele>270</ele>
        <time>2009-06-12T11:00:37Z</time>
      </trkpt>
      <trkpt lat="43.63782" lon="7.02666">
        <ele>268</ele>
        <time>2009-06-12T11:00:54Z</time>
      </trkpt>
      <trkpt lat="43.6378" lon="7.02667">
        <ele>268</ele>
        <time>2009-06-12T11:00:55Z</time>
      </trkpt>
      <trkpt lat="43.63739" lon="7.02682">
        <ele>267</ele>
        <time>2009-06-12T11:00:59Z</time>
      </trkpt>
      <trkpt lat="43.63733" lon="7.02684">
        <ele>267</ele>
        <time>2009-06-12T11:01:01Z</time>
      </trkpt>
      <trkpt lat="43.63728" lon="7.02685">
        <ele>266</ele>
        <time>2009-06-12T11:01:05Z</time>
      </trkpt>
      <trkpt lat="43.63713" lon="7.02692">
        <ele>267</ele>
        <time>2009-06-12T11:01:13Z</time>
      </trkpt>
      <trkpt lat="43.63708" lon="7.02699">
        <ele>266</ele>
        <time>2009-06-12T11:01:17Z</time>
      </trkpt>
      <trkpt lat="43.63701" lon="7.02702">
        <ele>265</ele>
        <time>2009-06-12T11:01:21Z</time>
      </trkpt>
      <trkpt lat="43.63694" lon="7.02703">
        <ele>266</ele>
        <time>2009-06-12T11:01:25Z</time>
      </trkpt>
      <trkpt lat="43.63678" lon="7.02712">
        <ele>266</ele>
        <time>2009-06-12T11:01:34Z</time>
      </trkpt>
      <trkpt lat="43.6367" lon="7.02715">
        <ele>267</ele>
        <time>2009-06-12T11:01:39Z</time>
      </trkpt>
      <trkpt lat="43.63664" lon="7.02711">
        <ele>266</ele>
        <time>2009-06-12T11:01:43Z</time>
      </trkpt>
      <trkpt lat="43.63657" lon="7.02706">
        <ele>263</ele>
        <time>2009-06-12T11:01:47Z</time>
      </trkpt>
      <trkpt lat="43.63649" lon="7.02696">
        <ele>262</ele>
        <time>2009-06-12T11:01:51Z</time>
      </trkpt>
      <trkpt lat="43.63637" lon="7.02675">
        <ele>263</ele>
        <time>2009-06-12T11:02:00Z</time>
      </trkpt>
      <trkpt lat="43.63638" lon="7.02668">
        <ele>263</ele>
        <time>2009-06-12T11:02:01Z</time>
      </trkpt>
      <trkpt lat="43.63635" lon="7.02658">
        <ele>263</ele>
        <time>2009-06-12T11:02:04Z</time>
      </trkpt>
      <trkpt lat="43.63625" lon="7.02634">
        <ele>264</ele>
        <time>2009-06-12T11:02:12Z</time>
      </trkpt>
      <trkpt lat="43.63621" lon="7.02623">
        <ele>265</ele>
        <time>2009-06-12T11:02:16Z</time>
      </trkpt>
      <trkpt lat="43.63621" lon="7.02614">
        <ele>266</ele>
        <time>2009-06-12T11:02:20Z</time>
      </trkpt>
      <trkpt lat="43.63621" lon="7.02607">
        <ele>265</ele>
        <time>2009-06-12T11:02:25Z</time>
      </trkpt>
      <trkpt lat="43.63627" lon="7.026">
        <ele>265</ele>
        <time>2009-06-12T11:02:33Z</time>
      </trkpt>
      <trkpt lat="43.63633" lon="7.02595">
        <ele>265</ele>
        <time>2009-06-12T11:02:37Z</time>
      </trkpt>
      <trkpt lat="43.63639" lon="7.02588">
        <ele>264</ele>
        <time>2009-06-12T11:02:41Z</time>
      </trkpt>
      <trkpt lat="43.63642" lon="7.02584">
        <ele>265</ele>
        <time>2009-06-12T11:02:44Z</time>
      </trkpt>
      <trkpt lat="43.63647" lon="7.0258">
        <ele>267</ele>
        <time>2009-06-12T11:02:49Z</time>
      </trkpt>
      <trkpt lat="43.63657" lon="7.02569">
        <ele>270</ele>
        <time>2009-06-12T11:02:57Z</time>
      </trkpt>
      <trkpt lat="43.63663" lon="7.02565">
        <ele>274</ele>
        <time>2009-06-12T11:03:04Z</time>
      </trkpt>
      <trkpt lat="43.63671" lon="7.0256">
        <ele>279</ele>
        <time>2009-06-12T11:03:11Z</time>
      </trkpt>
      <trkpt lat="43.63675" lon="7.02556">
        <ele>279</ele>
        <time>2009-06-12T11:03:14Z</time>
      </trkpt>
      <trkpt lat="43.63679" lon="7.02552">
        <ele>281</ele>
        <time>2009-06-12T11:03:18Z</time>
      </trkpt>
      <trkpt lat="43.63684" lon="7.02546">
        <ele>282</ele>
        <time>2009-06-12T11:03:22Z</time>
      </trkpt>
      <trkpt lat="43.63687" lon="7.0254">
        <ele>283</ele>
        <time>2009-06-12T11:03:26Z</time>
      </trkpt>
      <trkpt lat="43.63699" lon="7.0253">
        <ele>284</ele>
        <time>2009-06-12T11:03:35Z</time>
      </trkpt>
      <trkpt lat="43.63705" lon="7.02526">
        <ele>286</ele>
        <time>2009-06-12T11:03:37Z</time>
      </trkpt>
      <trkpt lat="43.63709" lon="7.02522">
        <ele>286</ele>
        <time>2009-06-12T11:03:40Z</time>
      </trkpt>
      <trkpt lat="43.63714" lon="7.02519">
        <ele>287</ele>
        <time>2009-06-12T11:03:44Z</time>
      </trkpt>
      <trkpt lat="43.63722" lon="7.02515">
        <ele>289</ele>
        <time>2009-06-12T11:03:48Z</time>
      </trkpt>
      <trkpt lat="43.63726" lon="7.02506">
        <ele>290</ele>
        <time>2009-06-12T11:03:52Z</time>
      </trkpt>
      <trkpt lat="43.63741" lon="7.02491">
        <ele>291</ele>
        <time>2009-06-12T11:04:01Z</time>
      </trkpt>
      <trkpt lat="43.63745" lon="7.0249">
        <ele>290</ele>
        <time>2009-06-12T11:04:02Z</time>
      </trkpt>
      <trkpt lat="43.63749" lon="7.02482">
        <ele>292</ele>
        <time>2009-06-12T11:04:06Z</time>
      </trkpt>
      <trkpt lat="43.63761" lon="7.02467">
        <ele>295</ele>
        <time>2009-06-12T11:04:12Z</time>
      </trkpt>
      <trkpt lat="43.63767" lon="7.02459">
        <ele>295</ele>
        <time>2009-06-12T11:04:15Z</time>
      </trkpt>
      <trkpt lat="43.63773" lon="7.02447">
        <ele>296</ele>
        <time>2009-06-12T11:04:19Z</time>
      </trkpt>
      <trkpt lat="43.63778" lon="7.02442">
        <ele>297</ele>
        <time>2009-06-12T11:04:20Z</time>
      </trkpt>
      <trkpt lat="43.63785" lon="7.0243">
        <ele>297</ele>
        <time>2009-06-12T11:04:24Z</time>
      </trkpt>
      <trkpt lat="43.63785" lon="7.02423">
        <ele>299</ele>
        <time>2009-06-12T11:04:42Z</time>
      </trkpt>
      <trkpt lat="43.63783" lon="7.02426">
        <ele>298</ele>
        <time>2009-06-12T11:05:06Z</time>
      </trkpt>
      <trkpt lat="43.63787" lon="7.02426">
        <ele>299</ele>
        <time>2009-06-12T11:05:13Z</time>
      </trkpt>
      <trkpt lat="43.63789" lon="7.02425">
        <ele>299</ele>
        <time>2009-06-12T11:05:14Z</time>
      </trkpt>
      <trkpt lat="43.63792" lon="7.02424">
        <ele>300</ele>
        <time>2009-06-12T11:05:22Z</time>
      </trkpt>
      <trkpt lat="43.63793" lon="7.02418">
        <ele>301</ele>
        <time>2009-06-12T11:05:56Z</time>
      </trkpt>
      <trkpt lat="43.63793" lon="7.02417">
        <ele>300</ele>
        <time>2009-06-12T11:05:57Z</time>
      </trkpt>
      <trkpt lat="43.63793" lon="7.0241">
        <ele>299</ele>
        <time>2009-06-12T11:06:12Z</time>
      </trkpt>
      <trkpt lat="43.63805" lon="7.02341">
        <ele>303</ele>
        <time>2009-06-12T11:06:17Z</time>
      </trkpt>
      <trkpt lat="43.63808" lon="7.02336">
        <ele>305</ele>
        <time>2009-06-12T11:06:19Z</time>
      </trkpt>
      <trkpt lat="43.6381" lon="7.02321">
        <ele>307</ele>
        <time>2009-06-12T11:06:22Z</time>
      </trkpt>
      <trkpt lat="43.63809" lon="7.02315">
        <ele>308</ele>
        <time>2009-06-12T11:06:23Z</time>
      </trkpt>
      <trkpt lat="43.63811" lon="7.02289">
        <ele>308</ele>
        <time>2009-06-12T11:06:32Z</time>
      </trkpt>
      <trkpt lat="43.63808" lon="7.02284">
        <ele>307</ele>
        <time>2009-06-12T11:06:38Z</time>
      </trkpt>
      <trkpt lat="43.63805" lon="7.02274">
        <ele>307</ele>
        <time>2009-06-12T11:06:43Z</time>
      </trkpt>
      <trkpt lat="43.638" lon="7.02271">
        <ele>307</ele>
        <time>2009-06-12T11:06:47Z</time>
      </trkpt>
      <trkpt lat="43.63795" lon="7.02261">
        <ele>308</ele>
        <time>2009-06-12T11:06:56Z</time>
      </trkpt>
      <trkpt lat="43.63789" lon="7.0226">
        <ele>308</ele>
        <time>2009-06-12T11:06:58Z</time>
      </trkpt>
      <trkpt lat="43.63785" lon="7.02257">
        <ele>308</ele>
        <time>2009-06-12T11:07:02Z</time>
      </trkpt>
      <trkpt lat="43.63779" lon="7.02251">
        <ele>308</ele>
        <time>2009-06-12T11:07:06Z</time>
      </trkpt>
      <trkpt lat="43.63775" lon="7.02245">
        <ele>309</ele>
        <time>2009-06-12T11:07:10Z</time>
      </trkpt>
      <trkpt lat="43.63772" lon="7.0224">
        <ele>309</ele>
        <time>2009-06-12T11:07:13Z</time>
      </trkpt>
      <trkpt lat="43.63765" lon="7.02236">
        <ele>308</ele>
        <time>2009-06-12T11:07:18Z</time>
      </trkpt>
      <trkpt lat="43.63763" lon="7.0223">
        <ele>308</ele>
        <time>2009-06-12T11:07:23Z</time>
      </trkpt>
      <trkpt lat="43.63755" lon="7.02225">
        <ele>308</ele>
        <time>2009-06-12T11:07:32Z</time>
      </trkpt>
      <trkpt lat="43.63752" lon="7.02219">
        <ele>309</ele>
        <time>2009-06-12T11:07:35Z</time>
      </trkpt>
      <trkpt lat="43.63751" lon="7.02212">
        <ele>309</ele>
        <time>2009-06-12T11:07:40Z</time>
      </trkpt>
      <trkpt lat="43.6375" lon="7.02203">
        <ele>309</ele>
        <time>2009-06-12T11:07:44Z</time>
      </trkpt>
      <trkpt lat="43.63745" lon="7.02188">
        <ele>309</ele>
        <time>2009-06-12T11:07:53Z</time>
      </trkpt>
      <trkpt lat="43.63741" lon="7.02191">
        <ele>309</ele>
        <time>2009-06-12T11:07:54Z</time>
      </trkpt>
      <trkpt lat="43.63735" lon="7.02187">
        <ele>310</ele>
        <time>2009-06-12T11:08:00Z</time>
      </trkpt>
      <trkpt lat="43.6373" lon="7.02184">
        <ele>310</ele>
        <time>2009-06-12T11:08:02Z</time>
      </trkpt>
      <trkpt lat="43.63727" lon="7.02176">
        <ele>309</ele>
        <time>2009-06-12T11:08:06Z</time>
      </trkpt>
      <trkpt lat="43.63722" lon="7.02169">
        <ele>308</ele>
        <time>2009-06-12T11:08:12Z</time>
      </trkpt>
      <trkpt lat="43.63716" lon="7.02168">
        <ele>307</ele>
        <time>2009-06-12T11:08:17Z</time>
      </trkpt>
      <trkpt lat="43.63716" lon="7.0216">
        <ele>308</ele>
        <time>2009-06-12T11:08:21Z</time>
      </trkpt>
      <trkpt lat="43.63716" lon="7.02148">
        <ele>309</ele>
        <time>2009-06-12T11:08:30Z</time>
      </trkpt>
      <trkpt lat="43.63711" lon="7.02145">
        <ele>311</ele>
        <time>2009-06-12T11:08:36Z</time>
      </trkpt>
      <trkpt lat="43.63707" lon="7.02139">
        <ele>311</ele>
        <time>2009-06-12T11:08:38Z</time>
      </trkpt>
      <trkpt lat="43.63699" lon="7.02135">
        <ele>315</ele>
        <time>2009-06-12T11:08:51Z</time>
      </trkpt>
      <trkpt lat="43.63695" lon="7.02129">
        <ele>319</ele>
        <time>2009-06-12T11:08:57Z</time>
      </trkpt>
      <trkpt lat="43.63691" lon="7.02122">
        <ele>321</ele>
        <time>2009-06-12T11:09:02Z</time>
      </trkpt>
      <trkpt lat="43.63685" lon="7.02104">
        <ele>324</ele>
        <time>2009-06-12T11:09:12Z</time>
      </trkpt>
      <trkpt lat="43.63684" lon="7.02095">
        <ele>325</ele>
        <time>2009-06-12T11:09:15Z</time>
      </trkpt>
      <trkpt lat="43.63684" lon="7.02083">
        <ele>327</ele>
        <time>2009-06-12T11:09:20Z</time>
      </trkpt>
      <trkpt lat="43.63684" lon="7.02072">
        <ele>328</ele>
        <time>2009-06-12T11:09:25Z</time>
      </trkpt>
      <trkpt lat="43.6368" lon="7.02052">
        <ele>329</ele>
        <time>2009-06-12T11:09:35Z</time>
      </trkpt>
      <trkpt lat="43.63679" lon="7.02042">
        <ele>332</ele>
        <time>2009-06-12T11:09:40Z</time>
      </trkpt>
      <trkpt lat="43.63678" lon="7.02036">
        <ele>332</ele>
        <time>2009-06-12T11:09:41Z</time>
      </trkpt>
      <trkpt lat="43.63676" lon="7.0203">
        <ele>333</ele>
        <time>2009-06-12T11:09:45Z</time>
      </trkpt>
      <trkpt lat="43.63673" lon="7.02019">
        <ele>334</ele>
        <time>2009-06-12T11:09:50Z</time>
      </trkpt>
      <trkpt lat="43.63669" lon="7.02004">
        <ele>334</ele>
        <time>2009-06-12T11:09:59Z</time>
      </trkpt>
      <trkpt lat="43.63663" lon="7.02005">
        <ele>334</ele>
        <time>2009-06-12T11:10:01Z</time>
      </trkpt>
      <trkpt lat="43.63661" lon="7.01998">
        <ele>335</ele>
        <time>2009-06-12T11:10:14Z</time>
      </trkpt>
      <trkpt lat="43.63656" lon="7.01996">
        <ele>336</ele>
        <time>2009-06-12T11:10:28Z</time>
      </trkpt>
      <trkpt lat="43.63653" lon="7.01991">
        <ele>337</ele>
        <time>2009-06-12T11:10:45Z</time>
      </trkpt>
      <trkpt lat="43.63617" lon="7.01937">
        <ele>337</ele>
        <time>2009-06-12T11:11:01Z</time>
      </trkpt>
      <trkpt lat="43.63612" lon="7.01936">
        <ele>336</ele>
        <time>2009-06-12T11:11:02Z</time>
      </trkpt>
      <trkpt lat="43.63605" lon="7.01934">
        <ele>336</ele>
        <time>2009-06-12T11:11:05Z</time>
      </trkpt>
      <trkpt lat="43.63601" lon="7.01935">
        <ele>336</ele>
        <time>2009-06-12T11:11:07Z</time>
      </trkpt>
      <trkpt lat="43.63591" lon="7.01952">
        <ele>337</ele>
        <time>2009-06-12T11:11:12Z</time>
      </trkpt>
      <trkpt lat="43.63588" lon="7.0196">
        <ele>338</ele>
        <time>2009-06-12T11:11:15Z</time>
      </trkpt>
      <trkpt lat="43.63582" lon="7.01974">
        <ele>338</ele>
        <time>2009-06-12T11:11:19Z</time>
      </trkpt>
      <trkpt lat="43.63577" lon="7.01988">
        <ele>338</ele>
        <time>2009-06-12T11:11:23Z</time>
      </trkpt>
      <trkpt lat="43.63574" lon="7.02001">
        <ele>331</ele>
        <time>2009-06-12T11:11:27Z</time>
      </trkpt>
      <trkpt lat="43.63568" lon="7.02034">
        <ele>331</ele>
        <time>2009-06-12T11:11:36Z</time>
      </trkpt>
      <trkpt lat="43.63573" lon="7.02038">
        <ele>329</ele>
        <time>2009-06-12T11:11:37Z</time>
      </trkpt>
      <trkpt lat="43.63576" lon="7.02058">
        <ele>329</ele>
        <time>2009-06-12T11:11:41Z</time>
      </trkpt>
      <trkpt lat="43.63575" lon="7.02065">
        <ele>329</ele>
        <time>2009-06-12T11:11:42Z</time>
      </trkpt>
      <trkpt lat="43.63574" lon="7.02074">
        <ele>326</ele>
        <time>2009-06-12T11:11:43Z</time>
      </trkpt>
      <trkpt lat="43.63578" lon="7.02089">
        <ele>326</ele>
        <time>2009-06-12T11:11:46Z</time>
      </trkpt>
      <trkpt lat="43.63589" lon="7.02102">
        <ele>321</ele>
        <time>2009-06-12T11:11:50Z</time>
      </trkpt>
      <trkpt lat="43.63605" lon="7.02139">
        <ele>315</ele>
        <time>2009-06-12T11:11:59Z</time>
      </trkpt>
      <trkpt lat="43.63606" lon="7.02147">
        <ele>313</ele>
        <time>2009-06-12T11:12:00Z</time>
      </trkpt>
      <trkpt lat="43.63609" lon="7.02168">
        <ele>310</ele>
        <time>2009-06-12T11:12:03Z</time>
      </trkpt>
      <trkpt lat="43.63586" lon="7.02195">
        <ele>308</ele>
        <time>2009-06-12T11:12:12Z</time>
      </trkpt>
      <trkpt lat="43.63592" lon="7.02194">
        <ele>309</ele>
        <time>2009-06-12T11:12:13Z</time>
      </trkpt>
      <trkpt lat="43.63584" lon="7.02196">
        <ele>310</ele>
        <time>2009-06-12T11:12:16Z</time>
      </trkpt>
      <trkpt lat="43.63571" lon="7.02193">
        <ele>313</ele>
        <time>2009-06-12T11:12:20Z</time>
      </trkpt>
      <trkpt lat="43.63555" lon="7.02193">
        <ele>313</ele>
        <time>2009-06-12T11:12:23Z</time>
      </trkpt>
      <trkpt lat="43.63517" lon="7.022">
        <ele>315</ele>
        <time>2009-06-12T11:12:33Z</time>
      </trkpt>
      <trkpt lat="43.635" lon="7.02202">
        <ele>317</ele>
        <time>2009-06-12T11:12:37Z</time>
      </trkpt>
      <trkpt lat="43.63495" lon="7.02202">
        <ele>317</ele>
        <time>2009-06-12T11:12:38Z</time>
      </trkpt>
      <trkpt lat="43.63481" lon="7.0221">
        <ele>316</ele>
        <time>2009-06-12T11:12:41Z</time>
      </trkpt>
      <trkpt lat="43.63462" lon="7.02217">
        <ele>317</ele>
        <time>2009-06-12T11:12:45Z</time>
      </trkpt>
      <trkpt lat="43.63443" lon="7.02227">
        <ele>316</ele>
        <time>2009-06-12T11:12:49Z</time>
      </trkpt>
      <trkpt lat="43.63437" lon="7.02231">
        <ele>315</ele>
        <time>2009-06-12T11:12:50Z</time>
      </trkpt>
      <trkpt lat="43.63406" lon="7.02282">
        <ele>314</ele>
        <time>2009-06-12T11:12:58Z</time>
      </trkpt>
      <trkpt lat="43.63403" lon="7.02288">
        <ele>314</ele>
        <time>2009-06-12T11:12:59Z</time>
      </trkpt>
      <trkpt lat="43.63395" lon="7.02307">
        <ele>312</ele>
        <time>2009-06-12T11:13:02Z</time>
      </trkpt>
      <trkpt lat="43.63391" lon="7.02327">
        <ele>310</ele>
        <time>2009-06-12T11:13:06Z</time>
      </trkpt>
      <trkpt lat="43.63389" lon="7.02345">
        <ele>303</ele>
        <time>2009-06-12T11:13:11Z</time>
      </trkpt>
      <trkpt lat="43.63388" lon="7.02358">
        <ele>304</ele>
        <time>2009-06-12T11:13:14Z</time>
      </trkpt>
      <trkpt lat="43.6338" lon="7.02375">
        <ele>304</ele>
        <time>2009-06-12T11:13:18Z</time>
      </trkpt>
      <trkpt lat="43.63374" lon="7.02388">
        <ele>302</ele>
        <time>2009-06-12T11:13:22Z</time>
      </trkpt>
      <trkpt lat="43.6337" lon="7.02394">
        <ele>302</ele>
        <time>2009-06-12T11:13:26Z</time>
      </trkpt>
      <trkpt lat="43.63367" lon="7.02402">
        <ele>300</ele>
        <time>2009-06-12T11:13:35Z</time>
      </trkpt>
      <trkpt lat="43.63375" lon="7.02409">
        <ele>299</ele>
        <time>2009-06-12T11:13:39Z</time>
      </trkpt>
      <trkpt lat="43.63382" lon="7.02414">
        <ele>299</ele>
        <time>2009-06-12T11:13:43Z</time>
      </trkpt>
      <trkpt lat="43.6339" lon="7.02424">
        <ele>299</ele>
        <time>2009-06-12T11:13:47Z</time>
      </trkpt>
      <trkpt lat="43.63397" lon="7.02427">
        <ele>298</ele>
        <time>2009-06-12T11:13:48Z</time>
      </trkpt>
      <trkpt lat="43.63406" lon="7.02432">
        <ele>298</ele>
        <time>2009-06-12T11:13:51Z</time>
      </trkpt>
      <trkpt lat="43.63426" lon="7.02449">
        <ele>299</ele>
        <time>2009-06-12T11:14:00Z</time>
      </trkpt>
      <trkpt lat="43.63418" lon="7.0245">
        <ele>298</ele>
        <time>2009-06-12T11:14:01Z</time>
      </trkpt>
      <trkpt lat="43.63421" lon="7.02458">
        <ele>298</ele>
        <time>2009-06-12T11:14:05Z</time>
      </trkpt>
      <trkpt lat="43.63414" lon="7.02494">
        <ele>297</ele>
        <time>2009-06-12T11:14:13Z</time>
      </trkpt>
      <trkpt lat="43.63409" lon="7.0251">
        <ele>296</ele>
        <time>2009-06-12T11:14:16Z</time>
      </trkpt>
      <trkpt lat="43.63405" lon="7.02517">
        <ele>296</ele>
        <time>2009-06-12T11:14:17Z</time>
      </trkpt>
      <trkpt lat="43.63404" lon="7.02533">
        <ele>295</ele>
        <time>2009-06-12T11:14:20Z</time>
      </trkpt>
      <trkpt lat="43.63408" lon="7.02553">
        <ele>293</ele>
        <time>2009-06-12T11:14:24Z</time>
      </trkpt>
      <trkpt lat="43.63409" lon="7.0256">
        <ele>292</ele>
        <time>2009-06-12T11:14:25Z</time>
      </trkpt>
      <trkpt lat="43.63417" lon="7.02592">
        <ele>292</ele>
        <time>2009-06-12T11:14:33Z</time>
      </trkpt>
      <trkpt lat="43.63418" lon="7.02609">
        <ele>291</ele>
        <time>2009-06-12T11:14:37Z</time>
      </trkpt>
      <trkpt lat="43.63419" lon="7.02616">
        <ele>290</ele>
        <time>2009-06-12T11:14:38Z</time>
      </trkpt>
      <trkpt lat="43.63419" lon="7.02636">
        <ele>290</ele>
        <time>2009-06-12T11:14:41Z</time>
      </trkpt>
      <trkpt lat="43.63419" lon="7.02644">
        <ele>290</ele>
        <time>2009-06-12T11:14:42Z</time>
      </trkpt>
      <trkpt lat="43.63419" lon="7.02662">
        <ele>290</ele>
        <time>2009-06-12T11:14:45Z</time>
      </trkpt>
      <trkpt lat="43.63415" lon="7.02667">
        <ele>290</ele>
        <time>2009-06-12T11:14:46Z</time>
      </trkpt>
      <trkpt lat="43.63415" lon="7.02677">
        <ele>290</ele>
        <time>2009-06-12T11:14:49Z</time>
      </trkpt>
      <trkpt lat="43.63418" lon="7.02688">
        <ele>293</ele>
        <time>2009-06-12T11:14:58Z</time>
      </trkpt>
      <trkpt lat="43.63423" lon="7.02689">
        <ele>295</ele>
        <time>2009-06-12T11:15:03Z</time>
      </trkpt>
      <trkpt lat="43.63412" lon="7.02696">
        <ele>297</ele>
        <time>2009-06-12T11:15:11Z</time>
      </trkpt>
      <trkpt lat="43.63403" lon="7.02696">
        <ele>296</ele>
        <time>2009-06-12T11:15:14Z</time>
      </trkpt>
      <trkpt lat="43.63398" lon="7.02695">
        <ele>296</ele>
        <time>2009-06-12T11:15:15Z</time>
      </trkpt>
      <trkpt lat="43.6339" lon="7.02697">
        <ele>297</ele>
        <time>2009-06-12T11:15:18Z</time>
      </trkpt>
      <trkpt lat="43.63376" lon="7.02699">
        <ele>297</ele>
        <time>2009-06-12T11:15:22Z</time>
      </trkpt>
      <trkpt lat="43.6337" lon="7.02701">
        <ele>297</ele>
        <time>2009-06-12T11:15:23Z</time>
      </trkpt>
      <trkpt lat="43.63355" lon="7.02703">
        <ele>298</ele>
        <time>2009-06-12T11:15:27Z</time>
      </trkpt>
      <trkpt lat="43.63325" lon="7.02702">
        <ele>297</ele>
        <time>2009-06-12T11:15:36Z</time>
      </trkpt>
      <trkpt lat="43.63318" lon="7.02699">
        <ele>297</ele>
        <time>2009-06-12T11:15:37Z</time>
      </trkpt>
      <trkpt lat="43.63309" lon="7.02697">
        <ele>297</ele>
        <time>2009-06-12T11:15:38Z</time>
      </trkpt>
      <trkpt lat="43.63294" lon="7.02682">
        <ele>297</ele>
        <time>2009-06-12T11:15:41Z</time>
      </trkpt>
      <trkpt lat="43.6329" lon="7.02678">
        <ele>297</ele>
        <time>2009-06-12T11:15:42Z</time>
      </trkpt>
      <trkpt lat="43.63284" lon="7.02674">
        <ele>295</ele>
        <time>2009-06-12T11:15:43Z</time>
      </trkpt>
      <trkpt lat="43.63268" lon="7.0267">
        <ele>296</ele>
        <time>2009-06-12T11:15:46Z</time>
      </trkpt>
      <trkpt lat="43.6326" lon="7.02668">
        <ele>295</ele>
        <time>2009-06-12T11:15:48Z</time>
      </trkpt>
      <trkpt lat="43.6325" lon="7.02664">
        <ele>295</ele>
        <time>2009-06-12T11:15:51Z</time>
      </trkpt>
      <trkpt lat="43.63241" lon="7.02666">
        <ele>294</ele>
        <time>2009-06-12T11:15:53Z</time>
      </trkpt>
      <trkpt lat="43.63215" lon="7.02662">
        <ele>292</ele>
        <time>2009-06-12T11:16:01Z</time>
      </trkpt>
      <trkpt lat="43.63211" lon="7.02664">
        <ele>291</ele>
        <time>2009-06-12T11:16:02Z</time>
      </trkpt>
      <trkpt lat="43.63201" lon="7.02664">
        <ele>291</ele>
        <time>2009-06-12T11:16:06Z</time>
      </trkpt>
      <trkpt lat="43.63194" lon="7.02666">
        <ele>290</ele>
        <time>2009-06-12T11:16:07Z</time>
      </trkpt>
      <trkpt lat="43.63185" lon="7.02668">
        <ele>290</ele>
        <time>2009-06-12T11:16:11Z</time>
      </trkpt>
      <trkpt lat="43.63181" lon="7.0267">
        <ele>290</ele>
        <time>2009-06-12T11:16:14Z</time>
      </trkpt>
      <trkpt lat="43.6317" lon="7.02675">
        <ele>290</ele>
        <time>2009-06-12T11:16:18Z</time>
      </trkpt>
      <trkpt lat="43.63164" lon="7.02674">
        <ele>290</ele>
        <time>2009-06-12T11:16:19Z</time>
      </trkpt>
      <trkpt lat="43.63158" lon="7.0267">
        <ele>290</ele>
        <time>2009-06-12T11:16:20Z</time>
      </trkpt>
      <trkpt lat="43.6315" lon="7.02662">
        <ele>288</ele>
        <time>2009-06-12T11:16:23Z</time>
      </trkpt>
      <trkpt lat="43.63145" lon="7.02658">
        <ele>288</ele>
        <time>2009-06-12T11:16:27Z</time>
      </trkpt>
      <trkpt lat="43.63138" lon="7.02657">
        <ele>287</ele>
        <time>2009-06-12T11:16:36Z</time>
      </trkpt>
      <trkpt lat="43.63135" lon="7.02664">
        <ele>283</ele>
        <time>2009-06-12T11:16:40Z</time>
      </trkpt>
      <trkpt lat="43.63134" lon="7.02672">
        <ele>277</ele>
        <time>2009-06-12T11:16:49Z</time>
      </trkpt>
      <trkpt lat="43.6313" lon="7.02676">
        <ele>270</ele>
        <time>2009-06-12T11:17:18Z</time>
      </trkpt>
      <trkpt lat="43.63125" lon="7.02672">
        <ele>271</ele>
        <time>2009-06-12T11:17:26Z</time>
      </trkpt>
      <trkpt lat="43.63144" lon="7.02625">
        <ele>271</ele>
        <time>2009-06-12T11:17:35Z</time>
      </trkpt>
      <trkpt lat="43.63141" lon="7.02611">
        <ele>271</ele>
        <time>2009-06-12T11:17:36Z</time>
      </trkpt>
      <trkpt lat="43.6314" lon="7.02601">
        <ele>272</ele>
        <time>2009-06-12T11:17:37Z</time>
      </trkpt>
      <trkpt lat="43.63133" lon="7.02583">
        <ele>272</ele>
        <time>2009-06-12T11:17:40Z</time>
      </trkpt>
      <trkpt lat="43.63133" lon="7.02568">
        <ele>269</ele>
        <time>2009-06-12T11:17:44Z</time>
      </trkpt>
      <trkpt lat="43.63124" lon="7.02562">
        <ele>269</ele>
        <time>2009-06-12T11:17:48Z</time>
      </trkpt>
      <trkpt lat="43.63112" lon="7.0256">
        <ele>267</ele>
        <time>2009-06-12T11:17:52Z</time>
      </trkpt>
      <trkpt lat="43.63076" lon="7.02576">
        <ele>265</ele>
        <time>2009-06-12T11:18:01Z</time>
      </trkpt>
      <trkpt lat="43.63073" lon="7.02583">
        <ele>265</ele>
        <time>2009-06-12T11:18:02Z</time>
      </trkpt>
      <trkpt lat="43.63064" lon="7.02597">
        <ele>264</ele>
        <time>2009-06-12T11:18:05Z</time>
      </trkpt>
      <trkpt lat="43.63061" lon="7.0261">
        <ele>266</ele>
        <time>2009-06-12T11:18:10Z</time>
      </trkpt>
      <trkpt lat="43.63058" lon="7.02615">
        <ele>267</ele>
        <time>2009-06-12T11:18:13Z</time>
      </trkpt>
      <trkpt lat="43.63055" lon="7.02609">
        <ele>265</ele>
        <time>2009-06-12T11:18:21Z</time>
      </trkpt>
      <trkpt lat="43.63045" lon="7.02613">
        <ele>264</ele>
        <time>2009-06-12T11:18:25Z</time>
      </trkpt>
      <trkpt lat="43.63031" lon="7.02645">
        <ele>265</ele>
        <time>2009-06-12T11:18:34Z</time>
      </trkpt>
      <trkpt lat="43.63028" lon="7.02652">
        <ele>266</ele>
        <time>2009-06-12T11:18:35Z</time>
      </trkpt>
      <trkpt lat="43.63022" lon="7.02665">
        <ele>266</ele>
        <time>2009-06-12T11:18:38Z</time>
      </trkpt>
      <trkpt lat="43.63014" lon="7.02683">
        <ele>265</ele>
        <time>2009-06-12T11:18:42Z</time>
      </trkpt>
      <trkpt lat="43.63002" lon="7.02703">
        <ele>265</ele>
        <time>2009-06-12T11:18:46Z</time>
      </trkpt>
      <trkpt lat="43.62999" lon="7.02708">
        <ele>264</ele>
        <time>2009-06-12T11:18:47Z</time>
      </trkpt>
      <trkpt lat="43.62991" lon="7.02722">
        <ele>263</ele>
        <time>2009-06-12T11:18:50Z</time>
      </trkpt>
      <trkpt lat="43.6297" lon="7.0276">
        <ele>262</ele>
        <time>2009-06-12T11:18:59Z</time>
      </trkpt>
      <trkpt lat="43.62955" lon="7.02777">
        <ele>261</ele>
        <time>2009-06-12T11:19:03Z</time>
      </trkpt>
      <trkpt lat="43.62948" lon="7.02788">
        <ele>260</ele>
        <time>2009-06-12T11:19:04Z</time>
      </trkpt>
      <trkpt lat="43.62931" lon="7.02806">
        <ele>260</ele>
        <time>2009-06-12T11:19:11Z</time>
      </trkpt>
      <trkpt lat="43.62922" lon="7.02813">
        <ele>259</ele>
        <time>2009-06-12T11:19:13Z</time>
      </trkpt>
      <trkpt lat="43.62923" lon="7.02824">
        <ele>259</ele>
        <time>2009-06-12T11:19:17Z</time>
      </trkpt>
      <trkpt lat="43.62921" lon="7.02836">
        <ele>258</ele>
        <time>2009-06-12T11:19:21Z</time>
      </trkpt>
      <trkpt lat="43.62924" lon="7.02845">
        <ele>258</ele>
        <time>2009-06-12T11:19:25Z</time>
      </trkpt>
      <trkpt lat="43.62925" lon="7.02865">
        <ele>256</ele>
        <time>2009-06-12T11:19:34Z</time>
      </trkpt>
      <trkpt lat="43.6292" lon="7.02874">
        <ele>255</ele>
        <time>2009-06-12T11:19:36Z</time>
      </trkpt>
      <trkpt lat="43.62919" lon="7.02882">
        <ele>254</ele>
        <time>2009-06-12T11:19:39Z</time>
      </trkpt>
      <trkpt lat="43.62917" lon="7.02894">
        <ele>252</ele>
        <time>2009-06-12T11:19:43Z</time>
      </trkpt>
      <trkpt lat="43.62912" lon="7.02905">
        <ele>251</ele>
        <time>2009-06-12T11:19:47Z</time>
      </trkpt>
      <trkpt lat="43.62902" lon="7.02931">
        <ele>250</ele>
        <time>2009-06-12T11:19:57Z</time>
      </trkpt>
      <trkpt lat="43.629" lon="7.02942">
        <ele>248</ele>
        <time>2009-06-12T11:20:02Z</time>
      </trkpt>
      <trkpt lat="43.62894" lon="7.02949">
        <ele>247</ele>
        <time>2009-06-12T11:20:04Z</time>
      </trkpt>
      <trkpt lat="43.6289" lon="7.02958">
        <ele>245</ele>
        <time>2009-06-12T11:20:06Z</time>
      </trkpt>
      <trkpt lat="43.62876" lon="7.02977">
        <ele>240</ele>
        <time>2009-06-12T11:20:12Z</time>
      </trkpt>
      <trkpt lat="43.62873" lon="7.02988">
        <ele>238</ele>
        <time>2009-06-12T11:20:16Z</time>
      </trkpt>
      <trkpt lat="43.62867" lon="7.02999">
        <ele>236</ele>
        <time>2009-06-12T11:20:20Z</time>
      </trkpt>
      <trkpt lat="43.6286" lon="7.03011">
        <ele>233</ele>
        <time>2009-06-12T11:20:24Z</time>
      </trkpt>
      <trkpt lat="43.62853" lon="7.03016">
        <ele>231</ele>
        <time>2009-06-12T11:20:26Z</time>
      </trkpt>
      <trkpt lat="43.62848" lon="7.03033">
        <ele>230</ele>
        <time>2009-06-12T11:20:34Z</time>
      </trkpt>
      <trkpt lat="43.62847" lon="7.03047">
        <ele>227</ele>
        <time>2009-06-12T11:20:39Z</time>
      </trkpt>
      <trkpt lat="43.62841" lon="7.03054">
        <ele>225</ele>
        <time>2009-06-12T11:20:41Z</time>
      </trkpt>
      <trkpt lat="43.6284" lon="7.0306">
        <ele>225</ele>
        <time>2009-06-12T11:20:44Z</time>
      </trkpt>
      <trkpt lat="43.62843" lon="7.03065">
        <ele>223</ele>
        <time>2009-06-12T11:20:45Z</time>
      </trkpt>
      <trkpt lat="43.62842" lon="7.03077">
        <ele>222</ele>
        <time>2009-06-12T11:20:49Z</time>
      </trkpt>
      <trkpt lat="43.62846" lon="7.03084">
        <ele>220</ele>
        <time>2009-06-12T11:20:51Z</time>
      </trkpt>
      <trkpt lat="43.62848" lon="7.03108">
        <ele>220</ele>
        <time>2009-06-12T11:21:00Z</time>
      </trkpt>
      <trkpt lat="43.62848" lon="7.03116">
        <ele>217</ele>
        <time>2009-06-12T11:21:02Z</time>
      </trkpt>
      <trkpt lat="43.62848" lon="7.03129">
        <ele>215</ele>
        <time>2009-06-12T11:21:06Z</time>
      </trkpt>
      <trkpt lat="43.62839" lon="7.03149">
        <ele>213</ele>
        <time>2009-06-12T11:21:12Z</time>
      </trkpt>
      <trkpt lat="43.62838" lon="7.03157">
        <ele>213</ele>
        <time>2009-06-12T11:21:14Z</time>
      </trkpt>
      <trkpt lat="43.62836" lon="7.03167">
        <ele>213</ele>
        <time>2009-06-12T11:21:18Z</time>
      </trkpt>
      <trkpt lat="43.62832" lon="7.03169">
        <ele>213</ele>
        <time>2009-06-12T11:21:19Z</time>
      </trkpt>
      <trkpt lat="43.6283" lon="7.03176">
        <ele>213</ele>
        <time>2009-06-12T11:21:22Z</time>
      </trkpt>
      <trkpt lat="43.62825" lon="7.03182">
        <ele>211</ele>
        <time>2009-06-12T11:21:24Z</time>
      </trkpt>
      <trkpt lat="43.62819" lon="7.03202">
        <ele>212</ele>
        <time>2009-06-12T11:21:33Z</time>
      </trkpt>
      <trkpt lat="43.62815" lon="7.03206">
        <ele>211</ele>
        <time>2009-06-12T11:21:34Z</time>
      </trkpt>
      <trkpt lat="43.62811" lon="7.03216">
        <ele>212</ele>
        <time>2009-06-12T11:21:37Z</time>
      </trkpt>
      <trkpt lat="43.62808" lon="7.0322">
        <ele>211</ele>
        <time>2009-06-12T11:21:39Z</time>
      </trkpt>
      <trkpt lat="43.62806" lon="7.03227">
        <ele>211</ele>
        <time>2009-06-12T11:21:42Z</time>
      </trkpt>
      <trkpt lat="43.62806" lon="7.0324">
        <ele>211</ele>
        <time>2009-06-12T11:21:47Z</time>
      </trkpt>
      <trkpt lat="43.6282" lon="7.03266">
        <ele>214</ele>
        <time>2009-06-12T11:21:57Z</time>
      </trkpt>
      <trkpt lat="43.62833" lon="7.03267">
        <ele>218</ele>
        <time>2009-06-12T11:21:58Z</time>
      </trkpt>
      <trkpt lat="43.62849" lon="7.03268">
        <ele>224</ele>
        <time>2009-06-12T11:21:59Z</time>
      </trkpt>
      <trkpt lat="43.62852" lon="7.03273">
        <ele>224</ele>
        <time>2009-06-12T11:22:02Z</time>
      </trkpt>
      <trkpt lat="43.62863" lon="7.03276">
        <ele>227</ele>
        <time>2009-06-12T11:22:03Z</time>
      </trkpt>
      <trkpt lat="43.6287" lon="7.03278">
        <ele>229</ele>
        <time>2009-06-12T11:22:04Z</time>
      </trkpt>
      <trkpt lat="43.62874" lon="7.03284">
        <ele>230</ele>
        <time>2009-06-12T11:22:07Z</time>
      </trkpt>
      <trkpt lat="43.62881" lon="7.03293">
        <ele>230</ele>
        <time>2009-06-12T11:22:11Z</time>
      </trkpt>
      <trkpt lat="43.62883" lon="7.03299">
        <ele>230</ele>
        <time>2009-06-12T11:22:13Z</time>
      </trkpt>
      <trkpt lat="43.62886" lon="7.0331">
        <ele>230</ele>
        <time>2009-06-12T11:22:18Z</time>
      </trkpt>
      <trkpt lat="43.62887" lon="7.03319">
        <ele>230</ele>
        <time>2009-06-12T11:22:22Z</time>
      </trkpt>
      <trkpt lat="43.62882" lon="7.03321">
        <ele>230</ele>
        <time>2009-06-12T11:22:23Z</time>
      </trkpt>
      <trkpt lat="43.62883" lon="7.03329">
        <ele>230</ele>
        <time>2009-06-12T11:22:26Z</time>
      </trkpt>
      <trkpt lat="43.62883" lon="7.03336">
        <ele>231</ele>
        <time>2009-06-12T11:22:27Z</time>
      </trkpt>
      <trkpt lat="43.6288" lon="7.03365">
        <ele>231</ele>
        <time>2009-06-12T11:22:36Z</time>
      </trkpt>
      <trkpt lat="43.62877" lon="7.0337">
        <ele>231</ele>
        <time>2009-06-12T11:22:38Z</time>
      </trkpt>
      <trkpt lat="43.62877" lon="7.03378">
        <ele>232</ele>
        <time>2009-06-12T11:22:41Z</time>
      </trkpt>
      <trkpt lat="43.62873" lon="7.03382">
        <ele>232</ele>
        <time>2009-06-12T11:22:42Z</time>
      </trkpt>
      <trkpt lat="43.62868" lon="7.03394">
        <ele>232</ele>
        <time>2009-06-12T11:22:46Z</time>
      </trkpt>
      <trkpt lat="43.62866" lon="7.03403">
        <ele>233</ele>
        <time>2009-06-12T11:22:49Z</time>
      </trkpt>
      <trkpt lat="43.62858" lon="7.03432">
        <ele>235</ele>
        <time>2009-06-12T11:23:00Z</time>
      </trkpt>
      <trkpt lat="43.62863" lon="7.03435">
        <ele>237</ele>
        <time>2009-06-12T11:23:01Z</time>
      </trkpt>
      <trkpt lat="43.6286" lon="7.03444">
        <ele>239</ele>
        <time>2009-06-12T11:23:05Z</time>
      </trkpt>
      <trkpt lat="43.62857" lon="7.0345">
        <ele>240</ele>
        <time>2009-06-12T11:23:07Z</time>
      </trkpt>
      <trkpt lat="43.6285" lon="7.03459">
        <ele>240</ele>
        <time>2009-06-12T11:23:11Z</time>
      </trkpt>
      <trkpt lat="43.62845" lon="7.03466">
        <ele>240</ele>
        <time>2009-06-12T11:23:14Z</time>
      </trkpt>
      <trkpt lat="43.62841" lon="7.03474">
        <ele>240</ele>
        <time>2009-06-12T11:23:18Z</time>
      </trkpt>
      <trkpt lat="43.62837" lon="7.03485">
        <ele>241</ele>
        <time>2009-06-12T11:23:22Z</time>
      </trkpt>
      <trkpt lat="43.62832" lon="7.03499">
        <ele>243</ele>
        <time>2009-06-12T11:23:26Z</time>
      </trkpt>
      <trkpt lat="43.62817" lon="7.03535">
        <ele>242</ele>
        <time>2009-06-12T11:23:36Z</time>
      </trkpt>
      <trkpt lat="43.62816" lon="7.03542">
        <ele>242</ele>
        <time>2009-06-12T11:23:38Z</time>
      </trkpt>
      <trkpt lat="43.62813" lon="7.03554">
        <ele>242</ele>
        <time>2009-06-12T11:23:41Z</time>
      </trkpt>
      <trkpt lat="43.6281" lon="7.0357">
        <ele>242</ele>
        <time>2009-06-12T11:23:45Z</time>
      </trkpt>
      <trkpt lat="43.62805" lon="7.03587">
        <ele>243</ele>
        <time>2009-06-12T11:23:49Z</time>
      </trkpt>
      <trkpt lat="43.62804" lon="7.036">
        <ele>243</ele>
        <time>2009-06-12T11:23:53Z</time>
      </trkpt>
      <trkpt lat="43.62821" lon="7.036">
        <ele>249</ele>
        <time>2009-06-12T11:23:54Z</time>
      </trkpt>
      <trkpt lat="43.62836" lon="7.0361">
        <ele>249</ele>
        <time>2009-06-12T11:24:03Z</time>
      </trkpt>
      <trkpt lat="43.62844" lon="7.0361">
        <ele>250</ele>
        <time>2009-06-12T11:24:07Z</time>
      </trkpt>
      <trkpt lat="43.62853" lon="7.03613">
        <ele>251</ele>
        <time>2009-06-12T11:24:11Z</time>
      </trkpt>
      <trkpt lat="43.62859" lon="7.03614">
        <ele>251</ele>
        <time>2009-06-12T11:24:14Z</time>
      </trkpt>
      <trkpt lat="43.6286" lon="7.0362">
        <ele>250</ele>
        <time>2009-06-12T11:24:15Z</time>
      </trkpt>
      <trkpt lat="43.62866" lon="7.03624">
        <ele>250</ele>
        <time>2009-06-12T11:24:18Z</time>
      </trkpt>
      <trkpt lat="43.62874" lon="7.03635">
        <ele>251</ele>
        <time>2009-06-12T11:24:22Z</time>
      </trkpt>
      <trkpt lat="43.62875" lon="7.03642">
        <ele>252</ele>
        <time>2009-06-12T11:24:26Z</time>
      </trkpt>
      <trkpt lat="43.62871" lon="7.03647">
        <ele>253</ele>
        <time>2009-06-12T11:24:28Z</time>
      </trkpt>
      <trkpt lat="43.62882" lon="7.03658">
        <ele>253</ele>
        <time>2009-06-12T11:24:37Z</time>
      </trkpt>
      <trkpt lat="43.62887" lon="7.03664">
        <ele>252</ele>
        <time>2009-06-12T11:24:39Z</time>
      </trkpt>
      <trkpt lat="43.62895" lon="7.03668">
        <ele>253</ele>
        <time>2009-06-12T11:24:43Z</time>
      </trkpt>
      <trkpt lat="43.62897" lon="7.03681">
        <ele>254</ele>
        <time>2009-06-12T11:24:45Z</time>
      </trkpt>
      <trkpt lat="43.629" lon="7.03686">
        <ele>254</ele>
        <time>2009-06-12T11:24:48Z</time>
      </trkpt>
      <trkpt lat="43.62903" lon="7.03692">
        <ele>254</ele>
        <time>2009-06-12T11:24:49Z</time>
      </trkpt>
      <trkpt lat="43.62912" lon="7.03724">
        <ele>254</ele>
        <time>2009-06-12T11:24:59Z</time>
      </trkpt>
      <trkpt lat="43.62911" lon="7.03732">
        <ele>253</ele>
        <time>2009-06-12T11:25:01Z</time>
      </trkpt>
      <trkpt lat="43.62916" lon="7.03741">
        <ele>254</ele>
        <time>2009-06-12T11:25:05Z</time>
      </trkpt>
      <trkpt lat="43.62918" lon="7.03754">
        <ele>254</ele>
        <time>2009-06-12T11:25:06Z</time>
      </trkpt>
      <trkpt lat="43.62909" lon="7.03797">
        <ele>253</ele>
        <time>2009-06-12T11:25:12Z</time>
      </trkpt>
      <trkpt lat="43.62904" lon="7.03811">
        <ele>253</ele>
        <time>2009-06-12T11:25:15Z</time>
      </trkpt>
      <trkpt lat="43.62902" lon="7.0382">
        <ele>253</ele>
        <time>2009-06-12T11:25:16Z</time>
      </trkpt>
      <trkpt lat="43.62897" lon="7.03835">
        <ele>253</ele>
        <time>2009-06-12T11:25:19Z</time>
      </trkpt>
      <trkpt lat="43.62898" lon="7.03847">
        <ele>252</ele>
        <time>2009-06-12T11:25:20Z</time>
      </trkpt>
      <trkpt lat="43.62894" lon="7.03864">
        <ele>252</ele>
        <time>2009-06-12T11:25:23Z</time>
      </trkpt>
      <trkpt lat="43.62893" lon="7.03873">
        <ele>251</ele>
        <time>2009-06-12T11:25:24Z</time>
      </trkpt>
      <trkpt lat="43.62892" lon="7.03881">
        <ele>252</ele>
        <time>2009-06-12T11:25:25Z</time>
      </trkpt>
      <trkpt lat="43.62897" lon="7.0393">
        <ele>252</ele>
        <time>2009-06-12T11:25:34Z</time>
      </trkpt>
      <trkpt lat="43.62904" lon="7.03939">
        <ele>253</ele>
        <time>2009-06-12T11:25:35Z</time>
      </trkpt>
      <trkpt lat="43.6291" lon="7.03947">
        <ele>253</ele>
        <time>2009-06-12T11:25:36Z</time>
      </trkpt>
      <trkpt lat="43.62912" lon="7.03953">
        <ele>254</ele>
        <time>2009-06-12T11:25:37Z</time>
      </trkpt>
      <trkpt lat="43.62918" lon="7.03972">
        <ele>253</ele>
        <time>2009-06-12T11:25:40Z</time>
      </trkpt>
      <trkpt lat="43.62918" lon="7.03981">
        <ele>253</ele>
        <time>2009-06-12T11:25:41Z</time>
      </trkpt>
      <trkpt lat="43.6292" lon="7.03987">
        <ele>253</ele>
        <time>2009-06-12T11:25:42Z</time>
      </trkpt>
      <trkpt lat="43.62927" lon="7.04005">
        <ele>253</ele>
        <time>2009-06-12T11:25:45Z</time>
      </trkpt>
      <trkpt lat="43.62919" lon="7.04013">
        <ele>253</ele>
        <time>2009-06-12T11:25:46Z</time>
      </trkpt>
      <trkpt lat="43.62919" lon="7.04032">
        <ele>253</ele>
        <time>2009-06-12T11:25:49Z</time>
      </trkpt>
      <trkpt lat="43.62918" lon="7.0404">
        <ele>253</ele>
        <time>2009-06-12T11:25:50Z</time>
      </trkpt>
      <trkpt lat="43.62921" lon="7.04044">
        <ele>253</ele>
        <time>2009-06-12T11:25:51Z</time>
      </trkpt>
      <trkpt lat="43.62937" lon="7.04073">
        <ele>254</ele>
        <time>2009-06-12T11:25:59Z</time>
      </trkpt>
      <trkpt lat="43.62942" lon="7.04072">
        <ele>255</ele>
        <time>2009-06-12T11:26:00Z</time>
      </trkpt>
      <trkpt lat="43.6295" lon="7.0408">
        <ele>256</ele>
        <time>2009-06-12T11:26:04Z</time>
      </trkpt>
      <trkpt lat="43.62955" lon="7.04081">
        <ele>256</ele>
        <time>2009-06-12T11:26:05Z</time>
      </trkpt>
      <trkpt lat="43.62971" lon="7.0408">
        <ele>257</ele>
        <time>2009-06-12T11:26:10Z</time>
      </trkpt>
      <trkpt lat="43.62979" lon="7.0408">
        <ele>257</ele>
        <time>2009-06-12T11:26:13Z</time>
      </trkpt>
      <trkpt lat="43.62989" lon="7.04081">
        <ele>257</ele>
        <time>2009-06-12T11:26:17Z</time>
      </trkpt>
      <trkpt lat="43.63" lon="7.04079">
        <ele>257</ele>
        <time>2009-06-12T11:26:21Z</time>
      </trkpt>
      <trkpt lat="43.63002" lon="7.04087">
        <ele>257</ele>
        <time>2009-06-12T11:26:22Z</time>
      </trkpt>
      <trkpt lat="43.63008" lon="7.04088">
        <ele>257</ele>
        <time>2009-06-12T11:26:25Z</time>
      </trkpt>
      <trkpt lat="43.63008" lon="7.04095">
        <ele>256</ele>
        <time>2009-06-12T11:26:26Z</time>
      </trkpt>
      <trkpt lat="43.63023" lon="7.04102">
        <ele>257</ele>
        <time>2009-06-12T11:26:35Z</time>
      </trkpt>
      <trkpt lat="43.63021" lon="7.04108">
        <ele>257</ele>
        <time>2009-06-12T11:26:37Z</time>
      </trkpt>
      <trkpt lat="43.63025" lon="7.04113">
        <ele>259</ele>
        <time>2009-06-12T11:26:49Z</time>
      </trkpt>
      <trkpt lat="43.63027" lon="7.0412">
        <ele>258</ele>
        <time>2009-06-12T11:26:51Z</time>
      </trkpt>
      <trkpt lat="43.6303" lon="7.04128">
        <ele>259</ele>
        <time>2009-06-12T11:27:00Z</time>
      </trkpt>
      <trkpt lat="43.63035" lon="7.04128">
        <ele>260</ele>
        <time>2009-06-12T11:27:01Z</time>
      </trkpt>
      <trkpt lat="43.63038" lon="7.04135">
        <ele>264</ele>
        <time>2009-06-12T11:27:13Z</time>
      </trkpt>
      <trkpt lat="43.63041" lon="7.04142">
        <ele>263</ele>
        <time>2009-06-12T11:27:17Z</time>
      </trkpt>
      <trkpt lat="43.6305" lon="7.04152">
        <ele>263</ele>
        <time>2009-06-12T11:27:18Z</time>
      </trkpt>
      <trkpt lat="43.63054" lon="7.0416">
        <ele>262</ele>
        <time>2009-06-12T11:27:19Z</time>
      </trkpt>
      <trkpt lat="43.6306" lon="7.04169">
        <ele>263</ele>
        <time>2009-06-12T11:27:22Z</time>
      </trkpt>
      <trkpt lat="43.63065" lon="7.04175">
        <ele>262</ele>
        <time>2009-06-12T11:27:23Z</time>
      </trkpt>
      <trkpt lat="43.63068" lon="7.0418">
        <ele>262</ele>
        <time>2009-06-12T11:27:24Z</time>
      </trkpt>
      <trkpt lat="43.63093" lon="7.0422">
        <ele>261</ele>
        <time>2009-06-12T11:27:34Z</time>
      </trkpt>
      <trkpt lat="43.63097" lon="7.04228">
        <ele>260</ele>
        <time>2009-06-12T11:27:36Z</time>
      </trkpt>
      <trkpt lat="43.63101" lon="7.04237">
        <ele>259</ele>
        <time>2009-06-12T11:27:37Z</time>
      </trkpt>
      <trkpt lat="43.63108" lon="7.04248">
        <ele>259</ele>
        <time>2009-06-12T11:27:40Z</time>
      </trkpt>
      <trkpt lat="43.6311" lon="7.04253">
        <ele>259</ele>
        <time>2009-06-12T11:27:41Z</time>
      </trkpt>
      <trkpt lat="43.63114" lon="7.0426">
        <ele>258</ele>
        <time>2009-06-12T11:27:42Z</time>
      </trkpt>
      <trkpt lat="43.63121" lon="7.04271">
        <ele>258</ele>
        <time>2009-06-12T11:27:45Z</time>
      </trkpt>
      <trkpt lat="43.63124" lon="7.04278">
        <ele>258</ele>
        <time>2009-06-12T11:27:46Z</time>
      </trkpt>
      <trkpt lat="43.63126" lon="7.04284">
        <ele>258</ele>
        <time>2009-06-12T11:27:47Z</time>
      </trkpt>
      <trkpt lat="43.63136" lon="7.04306">
        <ele>257</ele>
        <time>2009-06-12T11:27:55Z</time>
      </trkpt>
      <trkpt lat="43.63142" lon="7.04311">
        <ele>258</ele>
        <time>2009-06-12T11:28:01Z</time>
      </trkpt>
      <trkpt lat="43.63136" lon="7.04314">
        <ele>258</ele>
        <time>2009-06-12T11:28:05Z</time>
      </trkpt>
      <trkpt lat="43.63119" lon="7.04333">
        <ele>259</ele>
        <time>2009-06-12T11:28:12Z</time>
      </trkpt>
      <trkpt lat="43.63115" lon="7.04334">
        <ele>259</ele>
        <time>2009-06-12T11:28:13Z</time>
      </trkpt>
      <trkpt lat="43.63104" lon="7.04342">
        <ele>259</ele>
        <time>2009-06-12T11:28:15Z</time>
      </trkpt>
      <trkpt lat="43.63099" lon="7.04345">
        <ele>260</ele>
        <time>2009-06-12T11:28:16Z</time>
      </trkpt>
      <trkpt lat="43.6308" lon="7.04354">
        <ele>259</ele>
        <time>2009-06-12T11:28:19Z</time>
      </trkpt>
      <trkpt lat="43.63073" lon="7.04356">
        <ele>259</ele>
        <time>2009-06-12T11:28:20Z</time>
      </trkpt>
      <trkpt lat="43.63061" lon="7.04353">
        <ele>259</ele>
        <time>2009-06-12T11:28:23Z</time>
      </trkpt>
      <trkpt lat="43.63056" lon="7.04352">
        <ele>258</ele>
        <time>2009-06-12T11:28:24Z</time>
      </trkpt>
      <trkpt lat="43.63008" lon="7.04357">
        <ele>256</ele>
        <time>2009-06-12T11:28:32Z</time>
      </trkpt>
      <trkpt lat="43.63002" lon="7.04359">
        <ele>255</ele>
        <time>2009-06-12T11:28:33Z</time>
      </trkpt>
      <trkpt lat="43.62995" lon="7.04363">
        <ele>254</ele>
        <time>2009-06-12T11:28:34Z</time>
      </trkpt>
      <trkpt lat="43.62975" lon="7.04374">
        <ele>254</ele>
        <time>2009-06-12T11:28:37Z</time>
      </trkpt>
      <trkpt lat="43.62966" lon="7.04379">
        <ele>254</ele>
        <time>2009-06-12T11:28:38Z</time>
      </trkpt>
      <trkpt lat="43.62947" lon="7.0438">
        <ele>254</ele>
        <time>2009-06-12T11:28:41Z</time>
      </trkpt>
      <trkpt lat="43.62941" lon="7.04378">
        <ele>253</ele>
        <time>2009-06-12T11:28:42Z</time>
      </trkpt>
      <trkpt lat="43.62928" lon="7.04378">
        <ele>254</ele>
        <time>2009-06-12T11:28:45Z</time>
      </trkpt>
      <trkpt lat="43.6292" lon="7.04373">
        <ele>254</ele>
        <time>2009-06-12T11:28:49Z</time>
      </trkpt>
      <trkpt lat="43.62906" lon="7.04372">
        <ele>254</ele>
        <time>2009-06-12T11:28:58Z</time>
      </trkpt>
      <trkpt lat="43.62898" lon="7.04389">
        <ele>256</ele>
        <time>2009-06-12T11:29:02Z</time>
      </trkpt>
      <trkpt lat="43.62897" lon="7.04397">
        <ele>257</ele>
        <time>2009-06-12T11:29:03Z</time>
      </trkpt>
      <trkpt lat="43.62892" lon="7.04415">
        <ele>256</ele>
        <time>2009-06-12T11:29:06Z</time>
      </trkpt>
      <trkpt lat="43.62887" lon="7.04451">
        <ele>255</ele>
        <time>2009-06-12T11:29:10Z</time>
      </trkpt>
      <trkpt lat="43.62884" lon="7.04474">
        <ele>254</ele>
        <time>2009-06-12T11:29:13Z</time>
      </trkpt>
      <trkpt lat="43.62885" lon="7.04481">
        <ele>253</ele>
        <time>2009-06-12T11:29:14Z</time>
      </trkpt>
      <trkpt lat="43.6289" lon="7.04502">
        <ele>254</ele>
        <time>2009-06-12T11:29:18Z</time>
      </trkpt>
      <trkpt lat="43.62893" lon="7.04508">
        <ele>253</ele>
        <time>2009-06-12T11:29:19Z</time>
      </trkpt>
      <trkpt lat="43.62899" lon="7.04526">
        <ele>253</ele>
        <time>2009-06-12T11:29:22Z</time>
      </trkpt>
      <trkpt lat="43.62901" lon="7.04532">
        <ele>254</ele>
        <time>2009-06-12T11:29:23Z</time>
      </trkpt>
      <trkpt lat="43.6291" lon="7.04548">
        <ele>253</ele>
        <time>2009-06-12T11:29:26Z</time>
      </trkpt>
      <trkpt lat="43.62913" lon="7.04554">
        <ele>253</ele>
        <time>2009-06-12T11:29:27Z</time>
      </trkpt>
      <trkpt lat="43.62947" lon="7.04599">
        <ele>253</ele>
        <time>2009-06-12T11:29:35Z</time>
      </trkpt>
      <trkpt lat="43.62961" lon="7.04615">
        <ele>254</ele>
        <time>2009-06-12T11:29:39Z</time>
      </trkpt>
      <trkpt lat="43.62964" lon="7.04623">
        <ele>253</ele>
        <time>2009-06-12T11:29:40Z</time>
      </trkpt>
      <trkpt lat="43.62977" lon="7.04651">
        <ele>253</ele>
        <time>2009-06-12T11:29:43Z</time>
      </trkpt>
      <trkpt lat="43.62981" lon="7.0466">
        <ele>251</ele>
        <time>2009-06-12T11:29:44Z</time>
      </trkpt>
      <trkpt lat="43.62993" lon="7.0469">
        <ele>251</ele>
        <time>2009-06-12T11:29:47Z</time>
      </trkpt>
      <trkpt lat="43.62995" lon="7.04703">
        <ele>250</ele>
        <time>2009-06-12T11:29:48Z</time>
      </trkpt>
      <trkpt lat="43.62998" lon="7.04714">
        <ele>249</ele>
        <time>2009-06-12T11:29:49Z</time>
      </trkpt>
      <trkpt lat="43.63007" lon="7.04747">
        <ele>249</ele>
        <time>2009-06-12T11:29:52Z</time>
      </trkpt>
      <trkpt lat="43.63003" lon="7.04759">
        <ele>248</ele>
        <time>2009-06-12T11:29:53Z</time>
      </trkpt>
      <trkpt lat="43.63004" lon="7.04772">
        <ele>247</ele>
        <time>2009-06-12T11:29:54Z</time>
      </trkpt>
      <trkpt lat="43.63017" lon="7.04848">
        <ele>248</ele>
        <time>2009-06-12T11:30:02Z</time>
      </trkpt>
      <trkpt lat="43.63019" lon="7.04856">
        <ele>248</ele>
        <time>2009-06-12T11:30:03Z</time>
      </trkpt>
      <trkpt lat="43.63019" lon="7.04863">
        <ele>248</ele>
        <time>2009-06-12T11:30:04Z</time>
      </trkpt>
      <trkpt lat="43.63019" lon="7.04886">
        <ele>247</ele>
        <time>2009-06-12T11:30:07Z</time>
      </trkpt>
      <trkpt lat="43.63017" lon="7.04907">
        <ele>248</ele>
        <time>2009-06-12T11:30:11Z</time>
      </trkpt>
      <trkpt lat="43.6301" lon="7.0492">
        <ele>249</ele>
        <time>2009-06-12T11:30:13Z</time>
      </trkpt>
      <trkpt lat="43.63002" lon="7.04939">
        <ele>250</ele>
        <time>2009-06-12T11:30:18Z</time>
      </trkpt>
      <trkpt lat="43.62995" lon="7.04956">
        <ele>251</ele>
        <time>2009-06-12T11:30:22Z</time>
      </trkpt>
      <trkpt lat="43.62991" lon="7.04976">
        <ele>252</ele>
        <time>2009-06-12T11:30:26Z</time>
      </trkpt>
      <trkpt lat="43.62991" lon="7.04984">
        <ele>252</ele>
        <time>2009-06-12T11:30:27Z</time>
      </trkpt>
      <trkpt lat="43.6298" lon="7.05023">
        <ele>253</ele>
        <time>2009-06-12T11:30:35Z</time>
      </trkpt>
      <trkpt lat="43.62978" lon="7.05042">
        <ele>253</ele>
        <time>2009-06-12T11:30:39Z</time>
      </trkpt>
      <trkpt lat="43.62981" lon="7.05048">
        <ele>253</ele>
        <time>2009-06-12T11:30:40Z</time>
      </trkpt>
      <trkpt lat="43.62983" lon="7.05062">
        <ele>252</ele>
        <time>2009-06-12T11:30:43Z</time>
      </trkpt>
      <trkpt lat="43.62981" lon="7.05078">
        <ele>254</ele>
        <time>2009-06-12T11:30:47Z</time>
      </trkpt>
      <trkpt lat="43.62979" lon="7.05094">
        <ele>255</ele>
        <time>2009-06-12T11:30:51Z</time>
      </trkpt>
      <trkpt lat="43.62972" lon="7.05129">
        <ele>255</ele>
        <time>2009-06-12T11:31:00Z</time>
      </trkpt>
      <trkpt lat="43.62972" lon="7.05146">
        <ele>254</ele>
        <time>2009-06-12T11:31:05Z</time>
      </trkpt>
      <trkpt lat="43.62978" lon="7.05168">
        <ele>251</ele>
        <time>2009-06-12T11:31:11Z</time>
      </trkpt>
      <trkpt lat="43.62978" lon="7.05178">
        <ele>250</ele>
        <time>2009-06-12T11:31:14Z</time>
      </trkpt>
      <trkpt lat="43.62981" lon="7.05189">
        <ele>250</ele>
        <time>2009-06-12T11:31:18Z</time>
      </trkpt>
      <trkpt lat="43.62984" lon="7.05198">
        <ele>251</ele>
        <time>2009-06-12T11:31:22Z</time>
      </trkpt>
      <trkpt lat="43.62986" lon="7.05212">
        <ele>250</ele>
        <time>2009-06-12T11:31:26Z</time>
      </trkpt>
      <trkpt lat="43.62994" lon="7.05243">
        <ele>249</ele>
        <time>2009-06-12T11:31:34Z</time>
      </trkpt>
      <trkpt lat="43.62999" lon="7.05248">
        <ele>248</ele>
        <time>2009-06-12T11:31:35Z</time>
      </trkpt>
      <trkpt lat="43.63002" lon="7.05256">
        <ele>248</ele>
        <time>2009-06-12T11:31:36Z</time>
      </trkpt>
      <trkpt lat="43.63003" lon="7.05273">
        <ele>248</ele>
        <time>2009-06-12T11:31:39Z</time>
      </trkpt>
      <trkpt lat="43.63005" lon="7.0528">
        <ele>248</ele>
        <time>2009-06-12T11:31:40Z</time>
      </trkpt>
      <trkpt lat="43.63002" lon="7.05287">
        <ele>249</ele>
        <time>2009-06-12T11:31:41Z</time>
      </trkpt>
      <trkpt lat="43.62998" lon="7.05308">
        <ele>249</ele>
        <time>2009-06-12T11:31:44Z</time>
      </trkpt>
      <trkpt lat="43.62995" lon="7.05319">
        <ele>249</ele>
        <time>2009-06-12T11:31:45Z</time>
      </trkpt>
      <trkpt lat="43.62988" lon="7.05336">
        <ele>248</ele>
        <time>2009-06-12T11:31:48Z</time>
      </trkpt>
      <trkpt lat="43.62986" lon="7.05347">
        <ele>249</ele>
        <time>2009-06-12T11:31:49Z</time>
      </trkpt>
      <trkpt lat="43.62954" lon="7.05426">
        <ele>249</ele>
        <time>2009-06-12T11:31:57Z</time>
      </trkpt>
      <trkpt lat="43.6295" lon="7.0544">
        <ele>250</ele>
        <time>2009-06-12T11:31:58Z</time>
      </trkpt>
      <trkpt lat="43.62944" lon="7.05455">
        <ele>251</ele>
        <time>2009-06-12T11:31:59Z</time>
      </trkpt>
      <trkpt lat="43.6293" lon="7.05483">
        <ele>252</ele>
        <time>2009-06-12T11:32:02Z</time>
      </trkpt>
      <trkpt lat="43.62925" lon="7.05491">
        <ele>252</ele>
        <time>2009-06-12T11:32:03Z</time>
      </trkpt>
      <trkpt lat="43.6292" lon="7.05499">
        <ele>253</ele>
        <time>2009-06-12T11:32:04Z</time>
      </trkpt>
      <trkpt lat="43.62906" lon="7.05523">
        <ele>253</ele>
        <time>2009-06-12T11:32:07Z</time>
      </trkpt>
      <trkpt lat="43.629" lon="7.05558">
        <ele>252</ele>
        <time>2009-06-12T11:32:11Z</time>
      </trkpt>
      <trkpt lat="43.62898" lon="7.05586">
        <ele>253</ele>
        <time>2009-06-12T11:32:14Z</time>
      </trkpt>
      <trkpt lat="43.62897" lon="7.05595">
        <ele>252</ele>
        <time>2009-06-12T11:32:15Z</time>
      </trkpt>
      <trkpt lat="43.62889" lon="7.05624">
        <ele>252</ele>
        <time>2009-06-12T11:32:18Z</time>
      </trkpt>
      <trkpt lat="43.62888" lon="7.05633">
        <ele>252</ele>
        <time>2009-06-12T11:32:19Z</time>
      </trkpt>
      <trkpt lat="43.62882" lon="7.05661">
        <ele>252</ele>
        <time>2009-06-12T11:32:22Z</time>
      </trkpt>
      <trkpt lat="43.62877" lon="7.0567">
        <ele>251</ele>
        <time>2009-06-12T11:32:23Z</time>
      </trkpt>
      <trkpt lat="43.62868" lon="7.05693">
        <ele>252</ele>
        <time>2009-06-12T11:32:25Z</time>
      </trkpt>
      <trkpt lat="43.62862" lon="7.05698">
        <ele>251</ele>
        <time>2009-06-12T11:32:26Z</time>
      </trkpt>
      <trkpt lat="43.62831" lon="7.05746">
        <ele>251</ele>
        <time>2009-06-12T11:32:35Z</time>
      </trkpt>
      <trkpt lat="43.62822" lon="7.05749">
        <ele>251</ele>
        <time>2009-06-12T11:32:36Z</time>
      </trkpt>
      <trkpt lat="43.62817" lon="7.05754">
        <ele>251</ele>
        <time>2009-06-12T11:32:37Z</time>
      </trkpt>
      <trkpt lat="43.6281" lon="7.05755">
        <ele>251</ele>
        <time>2009-06-12T11:32:38Z</time>
      </trkpt>
      <trkpt lat="43.62795" lon="7.05769">
        <ele>251</ele>
        <time>2009-06-12T11:32:41Z</time>
      </trkpt>
      <trkpt lat="43.62789" lon="7.05773">
        <ele>252</ele>
        <time>2009-06-12T11:32:42Z</time>
      </trkpt>
      <trkpt lat="43.62778" lon="7.05772">
        <ele>251</ele>
        <time>2009-06-12T11:32:43Z</time>
      </trkpt>
      <trkpt lat="43.62759" lon="7.05763">
        <ele>251</ele>
        <time>2009-06-12T11:32:46Z</time>
      </trkpt>
      <trkpt lat="43.6275" lon="7.05754">
        <ele>251</ele>
        <time>2009-06-12T11:32:47Z</time>
      </trkpt>
      <trkpt lat="43.62743" lon="7.05746">
        <ele>251</ele>
        <time>2009-06-12T11:32:48Z</time>
      </trkpt>
      <trkpt lat="43.62707" lon="7.05722">
        <ele>250</ele>
        <time>2009-06-12T11:32:56Z</time>
      </trkpt>
      <trkpt lat="43.62685" lon="7.05741">
        <ele>250</ele>
        <time>2009-06-12T11:32:57Z</time>
      </trkpt>
      <trkpt lat="43.62677" lon="7.05747">
        <ele>250</ele>
        <time>2009-06-12T11:32:58Z</time>
      </trkpt>
      <trkpt lat="43.6267" lon="7.05754">
        <ele>250</ele>
        <time>2009-06-12T11:32:59Z</time>
      </trkpt>
      <trkpt lat="43.62655" lon="7.05776">
        <ele>251</ele>
        <time>2009-06-12T11:33:02Z</time>
      </trkpt>
      <trkpt lat="43.62652" lon="7.05783">
        <ele>251</ele>
        <time>2009-06-12T11:33:03Z</time>
      </trkpt>
      <trkpt lat="43.62621" lon="7.05825">
        <ele>252</ele>
        <time>2009-06-12T11:33:11Z</time>
      </trkpt>
      <trkpt lat="43.62604" lon="7.0584">
        <ele>252</ele>
        <time>2009-06-12T11:33:14Z</time>
      </trkpt>
      <trkpt lat="43.62597" lon="7.05839">
        <ele>252</ele>
        <time>2009-06-12T11:33:15Z</time>
      </trkpt>
      <trkpt lat="43.62579" lon="7.05849">
        <ele>253</ele>
        <time>2009-06-12T11:33:18Z</time>
      </trkpt>
      <trkpt lat="43.62571" lon="7.05854">
        <ele>253</ele>
        <time>2009-06-12T11:33:19Z</time>
      </trkpt>
      <trkpt lat="43.6256" lon="7.0586">
        <ele>253</ele>
        <time>2009-06-12T11:33:20Z</time>
      </trkpt>
      <trkpt lat="43.62538" lon="7.05872">
        <ele>253</ele>
        <time>2009-06-12T11:33:23Z</time>
      </trkpt>
      <trkpt lat="43.62519" lon="7.05876">
        <ele>251</ele>
        <time>2009-06-12T11:33:24Z</time>
      </trkpt>
      <trkpt lat="43.62459" lon="7.05898">
        <ele>251</ele>
        <time>2009-06-12T11:33:32Z</time>
      </trkpt>
      <trkpt lat="43.62464" lon="7.05902">
        <ele>250</ele>
        <time>2009-06-12T11:33:33Z</time>
      </trkpt>
      <trkpt lat="43.62457" lon="7.05914">
        <ele>249</ele>
        <time>2009-06-12T11:33:34Z</time>
      </trkpt>
      <trkpt lat="43.62455" lon="7.05927">
        <ele>248</ele>
        <time>2009-06-12T11:33:35Z</time>
      </trkpt>
      <trkpt lat="43.62449" lon="7.05944">
        <ele>246</ele>
        <time>2009-06-12T11:33:38Z</time>
      </trkpt>
      <trkpt lat="43.62454" lon="7.0595">
        <ele>246</ele>
        <time>2009-06-12T11:33:39Z</time>
      </trkpt>
      <trkpt lat="43.62454" lon="7.05957">
        <ele>246</ele>
        <time>2009-06-12T11:33:40Z</time>
      </trkpt>
      <trkpt lat="43.62445" lon="7.05975">
        <ele>242</ele>
        <time>2009-06-12T11:33:43Z</time>
      </trkpt>
      <trkpt lat="43.62441" lon="7.05982">
        <ele>240</ele>
        <time>2009-06-12T11:33:44Z</time>
      </trkpt>
      <trkpt lat="43.62439" lon="7.05991">
        <ele>239</ele>
        <time>2009-06-12T11:33:47Z</time>
      </trkpt>
      <trkpt lat="43.62458" lon="7.06022">
        <ele>238</ele>
        <time>2009-06-12T11:33:56Z</time>
      </trkpt>
      <trkpt lat="43.62458" lon="7.06033">
        <ele>233</ele>
        <time>2009-06-12T11:33:58Z</time>
      </trkpt>
      <trkpt lat="43.62459" lon="7.06064">
        <ele>234</ele>
        <time>2009-06-12T11:34:01Z</time>
      </trkpt>
      <trkpt lat="43.62454" lon="7.06098">
        <ele>231</ele>
        <time>2009-06-12T11:34:05Z</time>
      </trkpt>
      <trkpt lat="43.62451" lon="7.06104">
        <ele>231</ele>
        <time>2009-06-12T11:34:06Z</time>
      </trkpt>
      <trkpt lat="43.62449" lon="7.06125">
        <ele>230</ele>
        <time>2009-06-12T11:34:10Z</time>
      </trkpt>
      <trkpt lat="43.62451" lon="7.06136">
        <ele>229</ele>
        <time>2009-06-12T11:34:13Z</time>
      </trkpt>
      <trkpt lat="43.62456" lon="7.0614">
        <ele>226</ele>
        <time>2009-06-12T11:34:17Z</time>
      </trkpt>
      <trkpt lat="43.62464" lon="7.06145">
        <ele>226</ele>
        <time>2009-06-12T11:34:21Z</time>
      </trkpt>
      <trkpt lat="43.62469" lon="7.06149">
        <ele>226</ele>
        <time>2009-06-12T11:34:24Z</time>
      </trkpt>
    </trkseg>
  </trk>
</gpx>